<?xml version='1.0' encoding='UTF-8'?><gpx version="1.1" creator="JPX - https://github.com/jenetics/jpx" xmlns="http://www.topografix.com/GPX/1/1"><trk><trkseg><trkpt lat="45.13899700105706" lon="7.15037790772042"><ele>433.99999999999994</ele><time>2026-04-11T13:39:25Z</time></trkpt><trkpt lat="45.138919942383176" lon="7.1503684632523505"><ele>434.0</ele><time>2026-04-11T13:39:26Z</time></trkpt><trkpt lat="45.13882919750713" lon="7.15035734137788"><ele>434.0</ele><time>2026-04-11T13:39:27Z</time></trkpt><trkpt lat="45.13874867424395" lon="7.150347472283987"><ele>434.0</ele><time>2026-04-11T13:39:28Z</time></trkpt><trkpt lat="45.13868364442865" lon="7.150339502098665"><ele>433.99999999999994</ele><time>2026-04-11T13:39:29Z</time></trkpt><trkpt lat="45.13861203102376" lon="7.150330725021751"><ele>434.0</ele><time>2026-04-11T13:39:31Z</time></trkpt><trkpt lat="45.138584733377336" lon="7.150554134323173"><ele>434.0</ele><time>2026-04-11T13:39:32Z</time></trkpt><trkpt lat="45.13858326839523" lon="7.150714812497769"><ele>434.0</ele><time>2026-04-11T13:39:33Z</time></trkpt><trkpt lat="45.13856975837343" lon="7.150939987158482"><ele>434.0</ele><time>2026-04-11T13:39:34Z</time></trkpt><trkpt lat="45.138542927160955" lon="7.151204952351892"><ele>434.0</ele><time>2026-04-11T13:39:35Z</time></trkpt><trkpt lat="45.13851976011649" lon="7.151476441557423"><ele>434.0</ele><time>2026-04-11T13:39:36Z</time></trkpt><trkpt lat="45.13850271455302" lon="7.1516618398117275"><ele>434.0</ele><time>2026-04-11T13:39:37Z</time></trkpt><trkpt lat="45.13850003749626" lon="7.151774714003006"><ele>434.0</ele><time>2026-04-11T13:39:38Z</time></trkpt><trkpt lat="45.13845823879205" lon="7.15191247477511"><ele>434.2</ele><time>2026-04-11T13:39:42Z</time></trkpt><trkpt lat="45.138401114838075" lon="7.151960249506121"><ele>434.4</ele><time>2026-04-11T13:39:43Z</time></trkpt><trkpt lat="45.13831775232898" lon="7.151914102831789"><ele>434.6</ele><time>2026-04-11T13:39:44Z</time></trkpt><trkpt lat="45.13818519447664" lon="7.151928948981388"><ele>434.8</ele><time>2026-04-11T13:39:45Z</time></trkpt><trkpt lat="45.138080226695706" lon="7.15190201591147"><ele>435.0</ele><time>2026-04-11T13:39:46Z</time></trkpt><trkpt lat="45.1379303010414" lon="7.151919265858163"><ele>433.66666666666663</ele><time>2026-04-11T13:39:47Z</time></trkpt><trkpt lat="45.13774603455812" lon="7.151895395871403"><ele>432.3333333333333</ele><time>2026-04-11T13:39:48Z</time></trkpt><trkpt lat="45.13758330245975" lon="7.151885058782322"><ele>431.0</ele><time>2026-04-11T13:39:49Z</time></trkpt><trkpt lat="45.13743005413007" lon="7.151853014489989"><ele>432.66666666666663</ele><time>2026-04-11T13:39:50Z</time></trkpt><trkpt lat="45.137252533351834" lon="7.151821397052679"><ele>434.33333333333337</ele><time>2026-04-11T13:39:51Z</time></trkpt><trkpt lat="45.1370539104825" lon="7.151800801229905"><ele>436.0</ele><time>2026-04-11T13:39:52Z</time></trkpt><trkpt lat="45.13686787820904" lon="7.151742869947211"><ele>436.0</ele><time>2026-04-11T13:39:53Z</time></trkpt><trkpt lat="45.13671655387065" lon="7.151667911975504"><ele>436.0</ele><time>2026-04-11T13:39:54Z</time></trkpt><trkpt lat="45.136618844969654" lon="7.151592819310566"><ele>436.0</ele><time>2026-04-11T13:39:55Z</time></trkpt><trkpt lat="45.13655563820525" lon="7.151543265667939"><ele>436.0</ele><time>2026-04-11T13:39:56Z</time></trkpt><trkpt lat="45.136492039342265" lon="7.151510347117737"><ele>436.0</ele><time>2026-04-11T13:39:58Z</time></trkpt><trkpt lat="45.13640952153266" lon="7.151669413972132"><ele>436.75</ele><time>2026-04-11T13:39:59Z</time></trkpt><trkpt lat="45.13634984019557" lon="7.151841637686128"><ele>437.5</ele><time>2026-04-11T13:40:00Z</time></trkpt><trkpt lat="45.136282336614876" lon="7.152038382416949"><ele>438.25</ele><time>2026-04-11T13:40:01Z</time></trkpt><trkpt lat="45.13620867314509" lon="7.152152873006266"><ele>439.0</ele><time>2026-04-11T13:40:02Z</time></trkpt><trkpt lat="45.13616035614109" lon="7.152225670923754"><ele>439.00000000000006</ele><time>2026-04-11T13:40:03Z</time></trkpt><trkpt lat="45.13609615626634" lon="7.1522626504029025"><ele>439.0</ele><time>2026-04-11T13:40:04Z</time></trkpt><trkpt lat="45.13602627518801" lon="7.152313607467728"><ele>439.0</ele><time>2026-04-11T13:40:05Z</time></trkpt><trkpt lat="45.13593175575539" lon="7.152345962622392"><ele>439.0</ele><time>2026-04-11T13:40:06Z</time></trkpt><trkpt lat="45.135833731854554" lon="7.152379433322508"><ele>439.00000000000006</ele><time>2026-04-11T13:40:07.001Z</time></trkpt><trkpt lat="45.13574832769069" lon="7.152410915016844"><ele>439.0</ele><time>2026-04-11T13:40:08.001Z</time></trkpt><trkpt lat="45.1356396515779" lon="7.152425260395618"><ele>439.0</ele><time>2026-04-11T13:40:09.001Z</time></trkpt><trkpt lat="45.13553616871538" lon="7.152446519863536"><ele>439.0</ele><time>2026-04-11T13:40:10.001Z</time></trkpt><trkpt lat="45.1354361626034" lon="7.1523731712480005"><ele>439.0</ele><time>2026-04-11T13:40:11.001Z</time></trkpt><trkpt lat="45.135359906727714" lon="7.152280456452349"><ele>439.0</ele><time>2026-04-11T13:40:12.001Z</time></trkpt><trkpt lat="45.13527859368247" lon="7.152246930369208"><ele>439.0</ele><time>2026-04-11T13:40:13.001Z</time></trkpt><trkpt lat="45.13518716682538" lon="7.152293804305927"><ele>439.0</ele><time>2026-04-11T13:40:14Z</time></trkpt><trkpt lat="45.13512389854423" lon="7.152423037158607"><ele>439.0</ele><time>2026-04-11T13:40:15Z</time></trkpt><trkpt lat="45.13506162298521" lon="7.152613759619849"><ele>439.0</ele><time>2026-04-11T13:40:16Z</time></trkpt><trkpt lat="45.13495092078373" lon="7.152752047013616"><ele>439.0</ele><time>2026-04-11T13:40:17Z</time></trkpt><trkpt lat="45.134788523522175" lon="7.15282797110547"><ele>439.4</ele><time>2026-04-11T13:40:18Z</time></trkpt><trkpt lat="45.134657855411504" lon="7.152858481961878"><ele>439.79999999999995</ele><time>2026-04-11T13:40:19Z</time></trkpt><trkpt lat="45.13457575802469" lon="7.152837662928282"><ele>440.20000000000005</ele><time>2026-04-11T13:40:21Z</time></trkpt><trkpt lat="45.134512789420185" lon="7.152723485739644"><ele>440.6</ele><time>2026-04-11T13:40:24Z</time></trkpt><trkpt lat="45.13443011050751" lon="7.152704060076307"><ele>441.0</ele><time>2026-04-11T13:40:25Z</time></trkpt><trkpt lat="45.13433107804306" lon="7.152673987015847"><ele>441.0</ele><time>2026-04-11T13:40:26Z</time></trkpt><trkpt lat="45.13421910321681" lon="7.152604076071706"><ele>441.0</ele><time>2026-04-11T13:40:27Z</time></trkpt><trkpt lat="45.13409182875763" lon="7.152559176467551"><ele>441.0</ele><time>2026-04-11T13:40:28Z</time></trkpt><trkpt lat="45.13395584447498" lon="7.152539405167514"><ele>441.0</ele><time>2026-04-11T13:40:29Z</time></trkpt><trkpt lat="45.13380650412145" lon="7.152519184334131"><ele>442.25</ele><time>2026-04-11T13:40:30Z</time></trkpt><trkpt lat="45.1336590511477" lon="7.152499809384192"><ele>443.5</ele><time>2026-04-11T13:40:31Z</time></trkpt><trkpt lat="45.1335150852831" lon="7.15250400526605"><ele>444.75</ele><time>2026-04-11T13:40:32Z</time></trkpt><trkpt lat="45.13338674451196" lon="7.152489788550128"><ele>446.0</ele><time>2026-04-11T13:40:33Z</time></trkpt><trkpt lat="45.133290597996414" lon="7.152438325418924"><ele>446.75</ele><time>2026-04-11T13:40:34Z</time></trkpt><trkpt lat="45.13326741438171" lon="7.152274385071077"><ele>447.5</ele><time>2026-04-11T13:40:35Z</time></trkpt><trkpt lat="45.133256229491565" lon="7.152075439420043"><ele>448.25</ele><time>2026-04-11T13:40:36Z</time></trkpt><trkpt lat="45.13322195626852" lon="7.15182702473236"><ele>449.0</ele><time>2026-04-11T13:40:37Z</time></trkpt><trkpt lat="45.13317702033468" lon="7.151660640512858"><ele>449.75</ele><time>2026-04-11T13:40:38Z</time></trkpt><trkpt lat="45.133097704670305" lon="7.151597629122326"><ele>450.5</ele><time>2026-04-11T13:40:39Z</time></trkpt><trkpt lat="45.13299778109873" lon="7.151588223569599"><ele>451.25</ele><time>2026-04-11T13:40:40Z</time></trkpt><trkpt lat="45.13286343735107" lon="7.151575926472546"><ele>452.0</ele><time>2026-04-11T13:40:41Z</time></trkpt><trkpt lat="45.13270678737864" lon="7.151533078372065"><ele>452.66666666666663</ele><time>2026-04-11T13:40:42Z</time></trkpt><trkpt lat="45.132533316302776" lon="7.151470641487788"><ele>453.33333333333337</ele><time>2026-04-11T13:40:43Z</time></trkpt><trkpt lat="45.132358858497135" lon="7.15140636205667"><ele>454.0</ele><time>2026-04-11T13:40:44Z</time></trkpt><trkpt lat="45.13221457350237" lon="7.151341816942384"><ele>454.0</ele><time>2026-04-11T13:40:45Z</time></trkpt><trkpt lat="45.132106564057324" lon="7.15133587714367"><ele>454.0</ele><time>2026-04-11T13:40:46Z</time></trkpt><trkpt lat="45.13200284441663" lon="7.151434587174223"><ele>454.0</ele><time>2026-04-11T13:40:47Z</time></trkpt><trkpt lat="45.1318742288331" lon="7.151538584273059"><ele>454.0</ele><time>2026-04-11T13:40:48Z</time></trkpt><trkpt lat="45.13174322512316" lon="7.151517730606991"><ele>454.0</ele><time>2026-04-11T13:40:49Z</time></trkpt><trkpt lat="45.13157618301574" lon="7.151516900689962"><ele>454.0</ele><time>2026-04-11T13:40:50Z</time></trkpt><trkpt lat="45.131381683455174" lon="7.151567834030055"><ele>454.0</ele><time>2026-04-11T13:40:51Z</time></trkpt><trkpt lat="45.1311616100108" lon="7.151614946682041"><ele>455.0</ele><time>2026-04-11T13:40:52Z</time></trkpt><trkpt lat="45.130920790187986" lon="7.151712484640062"><ele>456.0</ele><time>2026-04-11T13:40:53Z</time></trkpt><trkpt lat="45.13068893385537" lon="7.151823841250795"><ele>457.66666666666663</ele><time>2026-04-11T13:40:54Z</time></trkpt><trkpt lat="45.130505420307536" lon="7.151877325297452"><ele>459.3333333333333</ele><time>2026-04-11T13:40:55Z</time></trkpt><trkpt lat="45.13036593763127" lon="7.151903278543209"><ele>461.0</ele><time>2026-04-11T13:40:56Z</time></trkpt><trkpt lat="45.130244031456186" lon="7.1518695845239835"><ele>460.99999999999994</ele><time>2026-04-11T13:40:57Z</time></trkpt><trkpt lat="45.13016052832568" lon="7.151890657580895"><ele>461.0</ele><time>2026-04-11T13:40:58Z</time></trkpt><trkpt lat="45.130095682350614" lon="7.151881021830618"><ele>461.0</ele><time>2026-04-11T13:41:00Z</time></trkpt><trkpt lat="45.13002507001419" lon="7.151813667358977"><ele>461.0</ele><time>2026-04-11T13:41:02Z</time></trkpt><trkpt lat="45.12995018362608" lon="7.151770814908539"><ele>460.99999999999994</ele><time>2026-04-11T13:41:03Z</time></trkpt><trkpt lat="45.12987519627861" lon="7.151700698127689"><ele>461.0</ele><time>2026-04-11T13:41:04Z</time></trkpt><trkpt lat="45.12976528415315" lon="7.151628703779329"><ele>461.8</ele><time>2026-04-11T13:41:05Z</time></trkpt><trkpt lat="45.12966254546942" lon="7.151575480818655"><ele>462.6</ele><time>2026-04-11T13:41:06Z</time></trkpt><trkpt lat="45.12955956790529" lon="7.151524822520829"><ele>463.4</ele><time>2026-04-11T13:41:07Z</time></trkpt><trkpt lat="45.12945700447686" lon="7.151475319829952"><ele>464.2</ele><time>2026-04-11T13:41:08Z</time></trkpt><trkpt lat="45.129358638647886" lon="7.151428374173347"><ele>465.0</ele><time>2026-04-11T13:41:09Z</time></trkpt><trkpt lat="45.12926565028118" lon="7.151383994903752"><ele>465.1666666666667</ele><time>2026-04-11T13:41:10Z</time></trkpt><trkpt lat="45.129180226488586" lon="7.151342662722824"><ele>465.33333333333337</ele><time>2026-04-11T13:41:11Z</time></trkpt><trkpt lat="45.12909349402627" lon="7.151298549097138"><ele>465.5</ele><time>2026-04-11T13:41:12Z</time></trkpt><trkpt lat="45.12902112713841" lon="7.151261742026791"><ele>465.6666666666667</ele><time>2026-04-11T13:41:13Z</time></trkpt><trkpt lat="45.128946907932765" lon="7.151223992836462"><ele>465.83333333333337</ele><time>2026-04-11T13:41:14Z</time></trkpt><trkpt lat="45.12888666918802" lon="7.1511925246215355"><ele>466.0</ele><time>2026-04-11T13:41:15Z</time></trkpt><trkpt lat="45.12881896685271" lon="7.151156980888696"><ele>466.0</ele><time>2026-04-11T13:41:17Z</time></trkpt><trkpt lat="45.12893488175756" lon="7.151219520566878"><ele>466.0</ele><time>2026-04-11T13:41:23Z</time></trkpt><trkpt lat="45.129012575189876" lon="7.151291600098469"><ele>466.0</ele><time>2026-04-11T13:41:24Z</time></trkpt><trkpt lat="45.12911362723794" lon="7.151355148659607"><ele>466.0</ele><time>2026-04-11T13:41:25Z</time></trkpt><trkpt lat="45.129232618973774" lon="7.151428383592019"><ele>466.0</ele><time>2026-04-11T13:41:26Z</time></trkpt><trkpt lat="45.12938223713648" lon="7.151491846039226"><ele>466.0</ele><time>2026-04-11T13:41:27Z</time></trkpt><trkpt lat="45.12953327597829" lon="7.151565321717166"><ele>466.0</ele><time>2026-04-11T13:41:28Z</time></trkpt><trkpt lat="45.129656577038574" lon="7.151630233210726"><ele>466.0</ele><time>2026-04-11T13:41:29Z</time></trkpt><trkpt lat="45.12977202139521" lon="7.151688486311806"><ele>464.75</ele><time>2026-04-11T13:41:30Z</time></trkpt><trkpt lat="45.12990594864965" lon="7.1517556522342085"><ele>463.5</ele><time>2026-04-11T13:41:31Z</time></trkpt><trkpt lat="45.13001871564985" lon="7.15184064402699"><ele>462.25</ele><time>2026-04-11T13:41:32Z</time></trkpt><trkpt lat="45.13009641663283" lon="7.151854842517951"><ele>461.0</ele><time>2026-04-11T13:41:33Z</time></trkpt><trkpt lat="45.12999392885913" lon="7.152114703861217"><ele>461.0</ele><time>2026-04-11T13:41:38Z</time></trkpt><trkpt lat="45.12990736438248" lon="7.152285128914721"><ele>461.0</ele><time>2026-04-11T13:41:39Z</time></trkpt><trkpt lat="45.12982666755736" lon="7.152465161758512"><ele>461.0</ele><time>2026-04-11T13:41:40Z</time></trkpt><trkpt lat="45.12974754302789" lon="7.152543923442016"><ele>461.0</ele><time>2026-04-11T13:41:41Z</time></trkpt><trkpt lat="45.129648791551475" lon="7.152463856424784"><ele>462.0</ele><time>2026-04-11T13:41:42Z</time></trkpt><trkpt lat="45.1294930281595" lon="7.152478815051852"><ele>463.0</ele><time>2026-04-11T13:41:43Z</time></trkpt><trkpt lat="45.12931690332741" lon="7.152452428536139"><ele>464.0</ele><time>2026-04-11T13:41:44Z</time></trkpt><trkpt lat="45.12912058641686" lon="7.152472691053061"><ele>465.66666666666663</ele><time>2026-04-11T13:41:45Z</time></trkpt><trkpt lat="45.12889468882264" lon="7.152530664602024"><ele>467.33333333333337</ele><time>2026-04-11T13:41:46Z</time></trkpt><trkpt lat="45.128717378696386" lon="7.152577470908554"><ele>469.0</ele><time>2026-04-11T13:41:47Z</time></trkpt><trkpt lat="45.128576356315236" lon="7.152605275045026"><ele>469.0</ele><time>2026-04-11T13:41:48Z</time></trkpt><trkpt lat="45.128452488539935" lon="7.1526340655547616"><ele>469.0</ele><time>2026-04-11T13:41:49.001Z</time></trkpt><trkpt lat="45.12833708180583" lon="7.152678264521631"><ele>469.0</ele><time>2026-04-11T13:41:50.001Z</time></trkpt><trkpt lat="45.12821884952465" lon="7.152724507508377"><ele>469.0</ele><time>2026-04-11T13:41:51.001Z</time></trkpt><trkpt lat="45.128097988537554" lon="7.1527594976839355"><ele>470.0</ele><time>2026-04-11T13:41:52.001Z</time></trkpt><trkpt lat="45.12797753073854" lon="7.15280253817389"><ele>471.0</ele><time>2026-04-11T13:41:53.001Z</time></trkpt><trkpt lat="45.12785968789642" lon="7.152861346402687"><ele>472.0</ele><time>2026-04-11T13:41:54.001Z</time></trkpt><trkpt lat="45.12774148889344" lon="7.152979534712861"><ele>473.0</ele><time>2026-04-11T13:41:55.001Z</time></trkpt><trkpt lat="45.1276055828263" lon="7.153109770538225"><ele>473.3333333333333</ele><time>2026-04-11T13:41:56.001Z</time></trkpt><trkpt lat="45.12746423629501" lon="7.153228080991157"><ele>473.66666666666663</ele><time>2026-04-11T13:41:57.001Z</time></trkpt><trkpt lat="45.12731637546701" lon="7.153355019709389"><ele>474.0</ele><time>2026-04-11T13:41:58.001Z</time></trkpt><trkpt lat="45.12716598333402" lon="7.153516840871489"><ele>476.0</ele><time>2026-04-11T13:41:59.001Z</time></trkpt><trkpt lat="45.12703820441666" lon="7.153728586968063"><ele>478.0</ele><time>2026-04-11T13:42:00.001Z</time></trkpt><trkpt lat="45.126893646483026" lon="7.153945389748577"><ele>480.0</ele><time>2026-04-11T13:42:01.001Z</time></trkpt><trkpt lat="45.12673428064305" lon="7.154151155713987"><ele>483.66666666666663</ele><time>2026-04-11T13:42:02.001Z</time></trkpt><trkpt lat="45.126558384852196" lon="7.154347554218369"><ele>487.3333333333333</ele><time>2026-04-11T13:42:03.001Z</time></trkpt><trkpt lat="45.12639225188737" lon="7.154493968109449"><ele>491.0</ele><time>2026-04-11T13:42:04.001Z</time></trkpt><trkpt lat="45.12625986533756" lon="7.154616519062713"><ele>491.0</ele><time>2026-04-11T13:42:05.001Z</time></trkpt><trkpt lat="45.126177861721146" lon="7.1547334918734"><ele>491.0</ele><time>2026-04-11T13:42:06.001Z</time></trkpt><trkpt lat="45.12614013865793" lon="7.154831400697871"><ele>491.0</ele><time>2026-04-11T13:42:07.001Z</time></trkpt><trkpt lat="45.126123363894095" lon="7.154943898780109"><ele>491.0</ele><time>2026-04-11T13:42:08.001Z</time></trkpt><trkpt lat="45.1261010683189" lon="7.155111979304537"><ele>491.0</ele><time>2026-04-11T13:42:09.001Z</time></trkpt><trkpt lat="45.12602496056726" lon="7.155270976954581"><ele>492.66666666666663</ele><time>2026-04-11T13:42:10.001Z</time></trkpt><trkpt lat="45.12593363526654" lon="7.155459227925653"><ele>494.33333333333337</ele><time>2026-04-11T13:42:11.001Z</time></trkpt><trkpt lat="45.12581310721194" lon="7.155636653397826"><ele>496.0</ele><time>2026-04-11T13:42:12.001Z</time></trkpt><trkpt lat="45.12568138093834" lon="7.155780363659193"><ele>500.5</ele><time>2026-04-11T13:42:13.001Z</time></trkpt><trkpt lat="45.1255382553313" lon="7.155790036317124"><ele>505.0</ele><time>2026-04-11T13:42:14.001Z</time></trkpt><trkpt lat="45.12541672334103" lon="7.15585319092833"><ele>509.5</ele><time>2026-04-11T13:42:15.001Z</time></trkpt><trkpt lat="45.12530552587966" lon="7.155960516492546"><ele>514.0</ele><time>2026-04-11T13:42:16.001Z</time></trkpt><trkpt lat="45.125193151756484" lon="7.15613801329572"><ele>514.0</ele><time>2026-04-11T13:42:17.001Z</time></trkpt><trkpt lat="45.12509474557025" lon="7.156296246329845"><ele>514.0</ele><time>2026-04-11T13:42:18.001Z</time></trkpt><trkpt lat="45.12500783019037" lon="7.156389968764692"><ele>514.0</ele><time>2026-04-11T13:42:19.001Z</time></trkpt><trkpt lat="45.12493120306783" lon="7.156409358791847"><ele>514.0</ele><time>2026-04-11T13:42:20Z</time></trkpt><trkpt lat="45.124866903166456" lon="7.15631067419964"><ele>514.0</ele><time>2026-04-11T13:42:21Z</time></trkpt><trkpt lat="45.12478464213771" lon="7.156186010444837"><ele>518.8</ele><time>2026-04-11T13:42:22Z</time></trkpt><trkpt lat="45.12466228039216" lon="7.156141324509319"><ele>523.5999999999999</ele><time>2026-04-11T13:42:23Z</time></trkpt><trkpt lat="45.12457670924922" lon="7.156111400124907"><ele>528.4</ele><time>2026-04-11T13:42:24Z</time></trkpt><trkpt lat="45.12451563014849" lon="7.156205771305175"><ele>533.1999999999999</ele><time>2026-04-11T13:42:25Z</time></trkpt><trkpt lat="45.12446933250444" lon="7.1563506554658565"><ele>538.0</ele><time>2026-04-11T13:42:26Z</time></trkpt><trkpt lat="45.12440034847534" lon="7.15654968844222"><ele>538.0</ele><time>2026-04-11T13:42:27Z</time></trkpt><trkpt lat="45.12436422190535" lon="7.1567664182825785"><ele>538.0</ele><time>2026-04-11T13:42:28Z</time></trkpt><trkpt lat="45.12433425859671" lon="7.156996119790838"><ele>538.0</ele><time>2026-04-11T13:42:29Z</time></trkpt><trkpt lat="45.12429261431834" lon="7.157182174131972"><ele>538.0</ele><time>2026-04-11T13:42:30Z</time></trkpt><trkpt lat="45.12423884709779" lon="7.157321889940042"><ele>538.0</ele><time>2026-04-11T13:42:31Z</time></trkpt><trkpt lat="45.12416703914377" lon="7.157498096317848"><ele>538.0</ele><time>2026-04-11T13:42:32Z</time></trkpt><trkpt lat="45.124081836639434" lon="7.157594613523267"><ele>538.0</ele><time>2026-04-11T13:42:33Z</time></trkpt><trkpt lat="45.12396331726742" lon="7.157540386853003"><ele>538.0</ele><time>2026-04-11T13:42:35Z</time></trkpt><trkpt lat="45.123897016670554" lon="7.157527381266789"><ele>538.0</ele><time>2026-04-11T13:42:36Z</time></trkpt><trkpt lat="45.12385114865437" lon="7.1576425990409795"><ele>538.0</ele><time>2026-04-11T13:42:37Z</time></trkpt><trkpt lat="45.12387069671131" lon="7.157760827882818"><ele>538.0</ele><time>2026-04-11T13:42:38Z</time></trkpt><trkpt lat="45.12395458369529" lon="7.157840626768487"><ele>538.0</ele><time>2026-04-11T13:42:39Z</time></trkpt><trkpt lat="45.124079617967844" lon="7.157889832403365"><ele>538.0</ele><time>2026-04-11T13:42:40Z</time></trkpt><trkpt lat="45.124166988829984" lon="7.157976201746613"><ele>538.0</ele><time>2026-04-11T13:42:41Z</time></trkpt><trkpt lat="45.12411664017797" lon="7.158256781647719"><ele>538.0</ele><time>2026-04-11T13:42:43Z</time></trkpt><trkpt lat="45.12408973441219" lon="7.158531746003352"><ele>539.5</ele><time>2026-04-11T13:42:44Z</time></trkpt><trkpt lat="45.12407870613295" lon="7.158735552680954"><ele>541.0</ele><time>2026-04-11T13:42:45Z</time></trkpt><trkpt lat="45.12402822030026" lon="7.15888241140606"><ele>542.5</ele><time>2026-04-11T13:42:46Z</time></trkpt><trkpt lat="45.12396428264477" lon="7.159045537208277"><ele>544.0</ele><time>2026-04-11T13:42:47Z</time></trkpt><trkpt lat="45.12394929664207" lon="7.159288604225493"><ele>555.6666666666667</ele><time>2026-04-11T13:42:48Z</time></trkpt><trkpt lat="45.1238938269605" lon="7.159554591517232"><ele>567.3333333333334</ele><time>2026-04-11T13:42:49Z</time></trkpt><trkpt lat="45.123872865107124" lon="7.159819475737848"><ele>579.0</ele><time>2026-04-11T13:42:50Z</time></trkpt><trkpt lat="45.12380991921883" lon="7.160093844971635"><ele>579.0</ele><time>2026-04-11T13:42:51Z</time></trkpt><trkpt lat="45.123694908484524" lon="7.160392409488586"><ele>579.0</ele><time>2026-04-11T13:42:52Z</time></trkpt><trkpt lat="45.123601357663304" lon="7.1606723140260895"><ele>577.0</ele><time>2026-04-11T13:42:53Z</time></trkpt><trkpt lat="45.12354681990666" lon="7.1609136986464526"><ele>575.0</ele><time>2026-04-11T13:42:54Z</time></trkpt><trkpt lat="45.123508022629835" lon="7.161086187758763"><ele>573.0</ele><time>2026-04-11T13:42:55Z</time></trkpt><trkpt lat="45.12344998411765" lon="7.16117797873303"><ele>571.0</ele><time>2026-04-11T13:42:57Z</time></trkpt><trkpt lat="45.12340766908307" lon="7.161053042356621"><ele>571.0</ele><time>2026-04-11T13:42:58Z</time></trkpt><trkpt lat="45.123361749290225" lon="7.160834221315818"><ele>571.0</ele><time>2026-04-11T13:43:00Z</time></trkpt><trkpt lat="45.12334553077921" lon="7.16055273498517"><ele>571.0</ele><time>2026-04-11T13:43:01Z</time></trkpt><trkpt lat="45.12334542650938" lon="7.1603274046830245"><ele>573.6666666666667</ele><time>2026-04-11T13:43:02Z</time></trkpt><trkpt lat="45.123404415806974" lon="7.160064004329465"><ele>576.3333333333334</ele><time>2026-04-11T13:43:03Z</time></trkpt><trkpt lat="45.12344557168517" lon="7.159837582989083"><ele>579.0</ele><time>2026-04-11T13:43:04Z</time></trkpt><trkpt lat="45.12346428660106" lon="7.159630719353476"><ele>579.6666666666666</ele><time>2026-04-11T13:43:05Z</time></trkpt><trkpt lat="45.12344035865395" lon="7.159376584744131"><ele>580.3333333333333</ele><time>2026-04-11T13:43:06Z</time></trkpt><trkpt lat="45.12341989260454" lon="7.159129097670903"><ele>581.0</ele><time>2026-04-11T13:43:07Z</time></trkpt><trkpt lat="45.12341768618906" lon="7.1589464359989385"><ele>581.0</ele><time>2026-04-11T13:43:08Z</time></trkpt><trkpt lat="45.123363874434496" lon="7.158774255641701"><ele>581.0</ele><time>2026-04-11T13:43:09Z</time></trkpt><trkpt lat="45.12328693791761" lon="7.158592461726741"><ele>581.0</ele><time>2026-04-11T13:43:10Z</time></trkpt><trkpt lat="45.123198289945115" lon="7.158460614901965"><ele>581.0</ele><time>2026-04-11T13:43:11Z</time></trkpt><trkpt lat="45.123055653992495" lon="7.158371580992999"><ele>584.25</ele><time>2026-04-11T13:43:12Z</time></trkpt><trkpt lat="45.12290521824107" lon="7.1582513763820925"><ele>587.5</ele><time>2026-04-11T13:43:13Z</time></trkpt><trkpt lat="45.12279398525591" lon="7.158114233576332"><ele>590.75</ele><time>2026-04-11T13:43:14Z</time></trkpt><trkpt lat="45.12276623323855" lon="7.15795199192022"><ele>594.0</ele><time>2026-04-11T13:43:15Z</time></trkpt><trkpt lat="45.122697943605914" lon="7.157866014994041"><ele>594.0</ele><time>2026-04-11T13:43:16Z</time></trkpt><trkpt lat="45.12261734324627" lon="7.157811355631726"><ele>594.0</ele><time>2026-04-11T13:43:17Z</time></trkpt><trkpt lat="45.122505129284356" lon="7.157831133744241"><ele>594.0</ele><time>2026-04-11T13:43:18Z</time></trkpt><trkpt lat="45.12234680493524" lon="7.157861030989388"><ele>594.0</ele><time>2026-04-11T13:43:19Z</time></trkpt><trkpt lat="45.122203684893044" lon="7.157816741922825"><ele>596.6</ele><time>2026-04-11T13:43:20Z</time></trkpt><trkpt lat="45.12209447714341" lon="7.157774371790569"><ele>599.2</ele><time>2026-04-11T13:43:21Z</time></trkpt><trkpt lat="45.12200921400401" lon="7.157758752551179"><ele>601.8000000000001</ele><time>2026-04-11T13:43:23Z</time></trkpt><trkpt lat="45.12194613572211" lon="7.157711352352013"><ele>604.4</ele><time>2026-04-11T13:43:34Z</time></trkpt><trkpt lat="45.12177706152254" lon="7.157635949776439"><ele>607.0</ele><time>2026-04-11T13:43:36Z</time></trkpt><trkpt lat="45.121648575971" lon="7.1575674059272485"><ele>609.6</ele><time>2026-04-11T13:43:37Z</time></trkpt><trkpt lat="45.12155542914581" lon="7.15750136085847"><ele>612.2</ele><time>2026-04-11T13:43:38Z</time></trkpt><trkpt lat="45.12150190919717" lon="7.157451289343702"><ele>614.8</ele><time>2026-04-11T13:43:39Z</time></trkpt><trkpt lat="45.12138493955074" lon="7.1575778680276"><ele>617.4</ele><time>2026-04-11T13:43:42Z</time></trkpt><trkpt lat="45.12134458521895" lon="7.157681054072242"><ele>620.0</ele><time>2026-04-11T13:43:44Z</time></trkpt><trkpt lat="45.121280677768155" lon="7.157800657942862"><ele>620.0</ele><time>2026-04-11T13:43:46Z</time></trkpt><trkpt lat="45.12123532815486" lon="7.157872850261725"><ele>620.0</ele><time>2026-04-11T13:43:47Z</time></trkpt><trkpt lat="45.121180417242236" lon="7.157960107412277"><ele>620.0</ele><time>2026-04-11T13:43:48Z</time></trkpt><trkpt lat="45.12112134573122" lon="7.158059831158453"><ele>620.0</ele><time>2026-04-11T13:43:49Z</time></trkpt><trkpt lat="45.12106684185109" lon="7.158160358882955"><ele>620.0</ele><time>2026-04-11T13:43:50Z</time></trkpt><trkpt lat="45.12099337001419" lon="7.158225368605458"><ele>620.0</ele><time>2026-04-11T13:43:51Z</time></trkpt><trkpt lat="45.12091838927717" lon="7.158291718707627"><ele>620.75</ele><time>2026-04-11T13:43:52Z</time></trkpt><trkpt lat="45.12075071323959" lon="7.158449480651818"><ele>621.5</ele><time>2026-04-11T13:43:54Z</time></trkpt><trkpt lat="45.120659321531264" lon="7.158522252754791"><ele>622.25</ele><time>2026-04-11T13:43:55Z</time></trkpt><trkpt lat="45.120584653443935" lon="7.158604300956245"><ele>623.0</ele><time>2026-04-11T13:43:56Z</time></trkpt><trkpt lat="45.12053740077845" lon="7.158687505373201"><ele>625.1666666666666</ele><time>2026-04-11T13:43:57Z</time></trkpt><trkpt lat="45.12053237677258" lon="7.158800023577217"><ele>627.3333333333333</ele><time>2026-04-11T13:43:58Z</time></trkpt><trkpt lat="45.12053989835878" lon="7.158935739197505"><ele>629.5</ele><time>2026-04-11T13:43:59Z</time></trkpt><trkpt lat="45.120523676053296" lon="7.159081498587858"><ele>631.6666666666666</ele><time>2026-04-11T13:44:00Z</time></trkpt><trkpt lat="45.12046862719537" lon="7.159166587911713"><ele>633.8333333333334</ele><time>2026-04-11T13:44:01Z</time></trkpt><trkpt lat="45.12040466667799" lon="7.1591656311894765"><ele>636.0</ele><time>2026-04-11T13:44:02Z</time></trkpt><trkpt lat="45.12033611310657" lon="7.159099999150551"><ele>636.0</ele><time>2026-04-11T13:44:03Z</time></trkpt><trkpt lat="45.12024931925198" lon="7.159079381793239"><ele>636.0</ele><time>2026-04-11T13:44:04Z</time></trkpt><trkpt lat="45.12014679721251" lon="7.159050238536651"><ele>636.0</ele><time>2026-04-11T13:44:05Z</time></trkpt><trkpt lat="45.12004628822352" lon="7.1589882023355855"><ele>636.0</ele><time>2026-04-11T13:44:06Z</time></trkpt><trkpt lat="45.11994537233074" lon="7.1589413513615"><ele>636.0</ele><time>2026-04-11T13:44:07Z</time></trkpt><trkpt lat="45.11985173892816" lon="7.158901741908375"><ele>638.6</ele><time>2026-04-11T13:44:08Z</time></trkpt><trkpt lat="45.11978807856959" lon="7.15887953725882"><ele>641.2</ele><time>2026-04-11T13:44:09Z</time></trkpt><trkpt lat="45.11972754112169" lon="7.15891237000751"><ele>643.8000000000001</ele><time>2026-04-11T13:44:11Z</time></trkpt><trkpt lat="45.11960074508511" lon="7.159005361428518"><ele>646.4000000000001</ele><time>2026-04-11T13:44:15Z</time></trkpt><trkpt lat="45.11954212406166" lon="7.159094822209643"><ele>649.0</ele><time>2026-04-11T13:44:16Z</time></trkpt><trkpt lat="45.119476074792054" lon="7.159225341840752"><ele>649.0</ele><time>2026-04-11T13:44:17Z</time></trkpt><trkpt lat="45.119398478867495" lon="7.159378526575092"><ele>649.0</ele><time>2026-04-11T13:44:18Z</time></trkpt><trkpt lat="45.11930219447251" lon="7.159518965489605"><ele>649.0</ele><time>2026-04-11T13:44:19Z</time></trkpt><trkpt lat="45.11922091279875" lon="7.159706953482936"><ele>649.0</ele><time>2026-04-11T13:44:20Z</time></trkpt><trkpt lat="45.11911849159898" lon="7.159871889300122"><ele>652.0</ele><time>2026-04-11T13:44:21Z</time></trkpt><trkpt lat="45.11901702455769" lon="7.1600632823464565"><ele>655.0</ele><time>2026-04-11T13:44:22Z</time></trkpt><trkpt lat="45.11891433981669" lon="7.160257306429168"><ele>658.0</ele><time>2026-04-11T13:44:23Z</time></trkpt><trkpt lat="45.11879802006866" lon="7.160471037438529"><ele>658.0</ele><time>2026-04-11T13:44:24Z</time></trkpt><trkpt lat="45.11870765814172" lon="7.160629236315083"><ele>658.0</ele><time>2026-04-11T13:44:25Z</time></trkpt><trkpt lat="45.11861888814542" lon="7.160737091535952"><ele>658.0</ele><time>2026-04-11T13:44:26Z</time></trkpt><trkpt lat="45.118559674647166" lon="7.160833749514752"><ele>658.0</ele><time>2026-04-11T13:44:27Z</time></trkpt><trkpt lat="45.118467630519326" lon="7.1608685045285725"><ele>658.0</ele><time>2026-04-11T13:44:28Z</time></trkpt><trkpt lat="45.1183687905391" lon="7.160871626686244"><ele>658.0</ele><time>2026-04-11T13:44:29Z</time></trkpt><trkpt lat="45.11831329898352" lon="7.16075165879723"><ele>658.0</ele><time>2026-04-11T13:44:30Z</time></trkpt><trkpt lat="45.118288417318674" lon="7.160660406215208"><ele>658.0</ele><time>2026-04-11T13:44:31Z</time></trkpt><trkpt lat="45.11825172418892" lon="7.160491679022899"><ele>658.0</ele><time>2026-04-11T13:44:32Z</time></trkpt><trkpt lat="45.11823879702339" lon="7.16026314060347"><ele>658.0</ele><time>2026-04-11T13:44:33Z</time></trkpt><trkpt lat="45.11824089461332" lon="7.159999297123074"><ele>658.0</ele><time>2026-04-11T13:44:34Z</time></trkpt><trkpt lat="45.118256718383385" lon="7.159728159321842"><ele>658.0</ele><time>2026-04-11T13:44:35Z</time></trkpt><trkpt lat="45.11826110915308" lon="7.15942558663624"><ele>660.0</ele><time>2026-04-11T13:44:36Z</time></trkpt><trkpt lat="45.11827551599275" lon="7.159124555011834"><ele>662.0</ele><time>2026-04-11T13:44:37Z</time></trkpt><trkpt lat="45.118247739938994" lon="7.158857205676483"><ele>664.0</ele><time>2026-04-11T13:44:38Z</time></trkpt><trkpt lat="45.11822313506569" lon="7.158643116090396"><ele>671.3333333333334</ele><time>2026-04-11T13:44:39Z</time></trkpt><trkpt lat="45.11817633116557" lon="7.158435743418079"><ele>678.6666666666666</ele><time>2026-04-11T13:44:40Z</time></trkpt><trkpt lat="45.11812628337661" lon="7.158207073379682"><ele>686.0</ele><time>2026-04-11T13:44:41Z</time></trkpt><trkpt lat="45.11808595563122" lon="7.157987774624683"><ele>687.5</ele><time>2026-04-11T13:44:42Z</time></trkpt><trkpt lat="45.11805417352814" lon="7.157785526075251"><ele>689.0</ele><time>2026-04-11T13:44:43Z</time></trkpt><trkpt lat="45.11800277070851" lon="7.157610145823169"><ele>690.5</ele><time>2026-04-11T13:44:44Z</time></trkpt><trkpt lat="45.11799291717083" lon="7.157458851698592"><ele>692.0</ele><time>2026-04-11T13:44:45Z</time></trkpt><trkpt lat="45.118008062313194" lon="7.157341515271999"><ele>692.0</ele><time>2026-04-11T13:44:46Z</time></trkpt><trkpt lat="45.11797838996422" lon="7.157196703510123"><ele>692.0</ele><time>2026-04-11T13:44:48Z</time></trkpt><trkpt lat="45.1179223777508" lon="7.157149241764063"><ele>692.0</ele><time>2026-04-11T13:44:49Z</time></trkpt><trkpt lat="45.11780539929337" lon="7.157185760393303"><ele>692.0</ele><time>2026-04-11T13:44:50Z</time></trkpt><trkpt lat="45.11775608527033" lon="7.157334325736293"><ele>692.0</ele><time>2026-04-11T13:44:51Z</time></trkpt><trkpt lat="45.11774970256839" lon="7.157435582113632"><ele>692.0</ele><time>2026-04-11T13:44:52Z</time></trkpt><trkpt lat="45.117742314893114" lon="7.15754881868584"><ele>692.0</ele><time>2026-04-11T13:44:53Z</time></trkpt><trkpt lat="45.11774569645365" lon="7.157654705192057"><ele>692.0</ele><time>2026-04-11T13:44:54Z</time></trkpt><trkpt lat="45.117704352817384" lon="7.157735211716197"><ele>692.0</ele><time>2026-04-11T13:44:55Z</time></trkpt><trkpt lat="45.11763971164638" lon="7.157882981875499"><ele>692.0</ele><time>2026-04-11T13:44:57Z</time></trkpt><trkpt lat="45.117549796687506" lon="7.157978985635861"><ele>692.0</ele><time>2026-04-11T13:44:59Z</time></trkpt><trkpt lat="45.117501780675255" lon="7.158038148951343"><ele>692.0</ele><time>2026-04-11T13:45:00Z</time></trkpt><trkpt lat="45.11746119661469" lon="7.158107623307736"><ele>692.0</ele><time>2026-04-11T13:45:01Z</time></trkpt><trkpt lat="45.117373016845065" lon="7.158181382117897"><ele>692.0</ele><time>2026-04-11T13:45:03Z</time></trkpt><trkpt lat="45.11728720297241" lon="7.158273748662629"><ele>692.0</ele><time>2026-04-11T13:45:05Z</time></trkpt><trkpt lat="45.117204509069744" lon="7.158374917746684"><ele>692.0</ele><time>2026-04-11T13:45:07Z</time></trkpt><trkpt lat="45.11710364629701" lon="7.158450679460465"><ele>694.6</ele><time>2026-04-11T13:45:09Z</time></trkpt><trkpt lat="45.117008213563174" lon="7.158537956908835"><ele>697.2</ele><time>2026-04-11T13:45:11Z</time></trkpt><trkpt lat="45.116956840027434" lon="7.158592766756383"><ele>699.8</ele><time>2026-04-11T13:45:12Z</time></trkpt><trkpt lat="45.11689712450964" lon="7.158691028091717"><ele>702.4</ele><time>2026-04-11T13:45:13Z</time></trkpt><trkpt lat="45.11680378461118" lon="7.1587957175466315"><ele>705.0</ele><time>2026-04-11T13:45:14Z</time></trkpt><trkpt lat="45.116726206086554" lon="7.158924900328489"><ele>703.8</ele><time>2026-04-11T13:45:15Z</time></trkpt><trkpt lat="45.11664717751306" lon="7.1590561278248215"><ele>702.6</ele><time>2026-04-11T13:45:16Z</time></trkpt><trkpt lat="45.11657167710266" lon="7.159196503558908"><ele>701.4000000000001</ele><time>2026-04-11T13:45:17Z</time></trkpt><trkpt lat="45.11649824487004" lon="7.159310109992645"><ele>700.2</ele><time>2026-04-11T13:45:18Z</time></trkpt><trkpt lat="45.11644013887276" lon="7.15939894932412"><ele>699.0</ele><time>2026-04-11T13:45:19Z</time></trkpt><trkpt lat="45.11638087375484" lon="7.159514635864188"><ele>703.2</ele><time>2026-04-11T13:45:21Z</time></trkpt><trkpt lat="45.11630894987608" lon="7.1594526511243135"><ele>707.4000000000001</ele><time>2026-04-11T13:45:22Z</time></trkpt><trkpt lat="45.116364181798204" lon="7.159345154729909"><ele>711.6</ele><time>2026-04-11T13:45:23Z</time></trkpt><trkpt lat="45.1163627391353" lon="7.159183610672207"><ele>715.8</ele><time>2026-04-11T13:45:24Z</time></trkpt><trkpt lat="45.11638742495184" lon="7.15896801445681"><ele>720.0</ele><time>2026-04-11T13:45:25Z</time></trkpt><trkpt lat="45.11637131080699" lon="7.158697613023522"><ele>721.6666666666666</ele><time>2026-04-11T13:45:26Z</time></trkpt><trkpt lat="45.1163362902172" lon="7.158418043102954"><ele>723.3333333333333</ele><time>2026-04-11T13:45:27Z</time></trkpt><trkpt lat="45.116319106014764" lon="7.158194151298009"><ele>725.0</ele><time>2026-04-11T13:45:28Z</time></trkpt><trkpt lat="45.11631548544875" lon="7.158014032860327"><ele>727.0</ele><time>2026-04-11T13:45:29Z</time></trkpt><trkpt lat="45.11630693941456" lon="7.157793514225044"><ele>729.0</ele><time>2026-04-11T13:45:30Z</time></trkpt><trkpt lat="45.116273583226366" lon="7.157561377251449"><ele>731.0</ele><time>2026-04-11T13:45:31Z</time></trkpt><trkpt lat="45.116246394320974" lon="7.1573582965088"><ele>732.75</ele><time>2026-04-11T13:45:32Z</time></trkpt><trkpt lat="45.11619344203714" lon="7.157195240317545"><ele>734.5</ele><time>2026-04-11T13:45:33Z</time></trkpt><trkpt lat="45.1161849780751" lon="7.157004521916944"><ele>736.25</ele><time>2026-04-11T13:45:34Z</time></trkpt><trkpt lat="45.116219104964344" lon="7.156878628506911"><ele>738.0</ele><time>2026-04-11T13:45:35Z</time></trkpt><trkpt lat="45.11630016380003" lon="7.156771975176792"><ele>738.0</ele><time>2026-04-11T13:45:37Z</time></trkpt><trkpt lat="45.11638538167368" lon="7.156636542476597"><ele>738.0</ele><time>2026-04-11T13:45:38Z</time></trkpt><trkpt lat="45.11644088777354" lon="7.156525913136688"><ele>738.0</ele><time>2026-04-11T13:45:39Z</time></trkpt><trkpt lat="45.116464017896206" lon="7.156403074898617"><ele>738.0</ele><time>2026-04-11T13:45:40Z</time></trkpt><trkpt lat="45.11638180648126" lon="7.156371926308952"><ele>738.0</ele><time>2026-04-11T13:45:41Z</time></trkpt><trkpt lat="45.11628757330034" lon="7.156378431662773"><ele>738.0</ele><time>2026-04-11T13:45:42Z</time></trkpt><trkpt lat="45.116145082367666" lon="7.156567575070339"><ele>738.0</ele><time>2026-04-11T13:45:44Z</time></trkpt><trkpt lat="45.11603403627467" lon="7.156640795315669"><ele>738.0</ele><time>2026-04-11T13:45:45Z</time></trkpt><trkpt lat="45.11587652076122" lon="7.156673166703745"><ele>738.0</ele><time>2026-04-11T13:45:46Z</time></trkpt><trkpt lat="45.11577333038977" lon="7.156770799768007"><ele>738.0</ele><time>2026-04-11T13:45:47Z</time></trkpt><trkpt lat="45.11576222112828" lon="7.156960681844904"><ele>738.0</ele><time>2026-04-11T13:45:48Z</time></trkpt><trkpt lat="45.11575405621493" lon="7.157183661018949"><ele>738.0</ele><time>2026-04-11T13:45:49Z</time></trkpt><trkpt lat="45.11565206723716" lon="7.157401724787722"><ele>743.75</ele><time>2026-04-11T13:45:50Z</time></trkpt><trkpt lat="45.11553581625174" lon="7.1576104242496665"><ele>749.5</ele><time>2026-04-11T13:45:51Z</time></trkpt><trkpt lat="45.11546887246393" lon="7.157755801315964"><ele>755.25</ele><time>2026-04-11T13:45:52Z</time></trkpt><trkpt lat="45.11537118737479" lon="7.15773050174105"><ele>761.0</ele><time>2026-04-11T13:45:54Z</time></trkpt><trkpt lat="45.11531040956605" lon="7.157624297905383"><ele>761.0</ele><time>2026-04-11T13:45:55Z</time></trkpt><trkpt lat="45.11530771481648" lon="7.157477302943996"><ele>761.0</ele><time>2026-04-11T13:45:56Z</time></trkpt><trkpt lat="45.1152946431428" lon="7.157147600056673"><ele>761.0</ele><time>2026-04-11T13:45:57Z</time></trkpt><trkpt lat="45.11531537818709" lon="7.156837903686187"><ele>762.3333333333333</ele><time>2026-04-11T13:45:58Z</time></trkpt><trkpt lat="45.11534337234953" lon="7.156613276629211"><ele>763.6666666666666</ele><time>2026-04-11T13:45:59Z</time></trkpt><trkpt lat="45.11534683381685" lon="7.156405698713964"><ele>765.0</ele><time>2026-04-11T13:46:00Z</time></trkpt><trkpt lat="45.115319192269475" lon="7.1561767520217305"><ele>765.5</ele><time>2026-04-11T13:46:01Z</time></trkpt><trkpt lat="45.11524943051131" lon="7.155965459975892"><ele>766.0</ele><time>2026-04-11T13:46:02Z</time></trkpt><trkpt lat="45.115227110643445" lon="7.155766158396024"><ele>766.5</ele><time>2026-04-11T13:46:03Z</time></trkpt><trkpt lat="45.11518897936704" lon="7.15562011812455"><ele>767.0</ele><time>2026-04-11T13:46:04Z</time></trkpt><trkpt lat="45.1150655430864" lon="7.155444816649721"><ele>767.75</ele><time>2026-04-11T13:46:05Z</time></trkpt><trkpt lat="45.11496371722886" lon="7.155276068965544"><ele>768.5</ele><time>2026-04-11T13:46:06Z</time></trkpt><trkpt lat="45.11487223275231" lon="7.155123276977395"><ele>769.25</ele><time>2026-04-11T13:46:07Z</time></trkpt><trkpt lat="45.11482254617688" lon="7.155005491937253"><ele>770.0</ele><time>2026-04-11T13:46:08.001Z</time></trkpt><trkpt lat="45.11484464352736" lon="7.154915918272485"><ele>773.8</ele><time>2026-04-11T13:46:09.001Z</time></trkpt><trkpt lat="45.11488473806279" lon="7.154782380925194"><ele>777.6</ele><time>2026-04-11T13:46:10.001Z</time></trkpt><trkpt lat="45.11491357594941" lon="7.154678018860542"><ele>781.4000000000001</ele><time>2026-04-11T13:46:11.001Z</time></trkpt><trkpt lat="45.115000003519825" lon="7.154611919139354"><ele>785.2</ele><time>2026-04-11T13:46:12.001Z</time></trkpt><trkpt lat="45.11513273293932" lon="7.1545883869554485"><ele>789.0</ele><time>2026-04-11T13:46:13.001Z</time></trkpt><trkpt lat="45.11528979656775" lon="7.154611220038541"><ele>789.0</ele><time>2026-04-11T13:46:14.001Z</time></trkpt><trkpt lat="45.1154013800806" lon="7.154548407426651"><ele>789.0</ele><time>2026-04-11T13:46:15.001Z</time></trkpt><trkpt lat="45.115442860809225" lon="7.154375578316461"><ele>789.0</ele><time>2026-04-11T13:46:16.001Z</time></trkpt><trkpt lat="45.115504325029505" lon="7.154192169526413"><ele>789.0</ele><time>2026-04-11T13:46:17.001Z</time></trkpt><trkpt lat="45.11549653179268" lon="7.1539114408090105"><ele>795.25</ele><time>2026-04-11T13:46:18.001Z</time></trkpt><trkpt lat="45.115536170416455" lon="7.15374299627495"><ele>801.5</ele><time>2026-04-11T13:46:19.001Z</time></trkpt><trkpt lat="45.11562007333925" lon="7.153581014413162"><ele>807.75</ele><time>2026-04-11T13:46:20.001Z</time></trkpt><trkpt lat="45.11569158434861" lon="7.153468922453596"><ele>814.0</ele><time>2026-04-11T13:46:21.001Z</time></trkpt><trkpt lat="45.11568484813106" lon="7.153311619898065"><ele>814.0</ele><time>2026-04-11T13:46:23.001Z</time></trkpt><trkpt lat="45.115618416074405" lon="7.153325442158888"><ele>814.0</ele><time>2026-04-11T13:46:24.001Z</time></trkpt><trkpt lat="45.11553632617715" lon="7.153387200757769"><ele>814.0</ele><time>2026-04-11T13:46:25.001Z</time></trkpt><trkpt lat="45.11555937211146" lon="7.153565669403152"><ele>814.0</ele><time>2026-04-11T13:46:27.001Z</time></trkpt><trkpt lat="45.11551860383531" lon="7.153692916245297"><ele>814.0</ele><time>2026-04-11T13:46:28.001Z</time></trkpt><trkpt lat="45.11532932766166" lon="7.154029593498687"><ele>805.6666666666666</ele><time>2026-04-11T13:46:29.001Z</time></trkpt><trkpt lat="45.1151746483751" lon="7.154263011443485"><ele>797.3333333333333</ele><time>2026-04-11T13:46:30.001Z</time></trkpt><trkpt lat="45.115084189111286" lon="7.154405726830417"><ele>789.0</ele><time>2026-04-11T13:46:31.001Z</time></trkpt><trkpt lat="45.11496910470544" lon="7.1544325000158855"><ele>789.0</ele><time>2026-04-11T13:46:33Z</time></trkpt><trkpt lat="45.11498095214382" lon="7.1542418217060675"><ele>789.0</ele><time>2026-04-11T13:46:34Z</time></trkpt><trkpt lat="45.115009102863894" lon="7.154086645313977"><ele>789.0</ele><time>2026-04-11T13:46:35Z</time></trkpt><trkpt lat="45.11507440849474" lon="7.153964684862503"><ele>789.0</ele><time>2026-04-11T13:46:36Z</time></trkpt><trkpt lat="45.11515318320003" lon="7.153787245882629"><ele>797.3333333333333</ele><time>2026-04-11T13:46:37Z</time></trkpt><trkpt lat="45.115209791080304" lon="7.153521604319236"><ele>805.6666666666666</ele><time>2026-04-11T13:46:38Z</time></trkpt><trkpt lat="45.11528027679158" lon="7.153248956024471"><ele>814.0</ele><time>2026-04-11T13:46:39Z</time></trkpt><trkpt lat="45.115321258224085" lon="7.153037094150241"><ele>820.25</ele><time>2026-04-11T13:46:40Z</time></trkpt><trkpt lat="45.115405121627795" lon="7.152860833206652"><ele>826.5</ele><time>2026-04-11T13:46:41Z</time></trkpt><trkpt lat="45.11548888422138" lon="7.152726893076599"><ele>832.75</ele><time>2026-04-11T13:46:42Z</time></trkpt><trkpt lat="45.11558502595287" lon="7.152633172001586"><ele>839.0</ele><time>2026-04-11T13:46:43Z</time></trkpt><trkpt lat="45.115700309191006" lon="7.152557324324987"><ele>835.5</ele><time>2026-04-11T13:46:44Z</time></trkpt><trkpt lat="45.115858510488366" lon="7.152448404902052"><ele>832.0</ele><time>2026-04-11T13:46:45Z</time></trkpt><trkpt lat="45.11596876263575" lon="7.152358829881075"><ele>828.5</ele><time>2026-04-11T13:46:46Z</time></trkpt><trkpt lat="45.11605541374788" lon="7.152257132500131"><ele>825.0</ele><time>2026-04-11T13:46:47Z</time></trkpt><trkpt lat="45.11606402891392" lon="7.152149131545586"><ele>825.0</ele><time>2026-04-11T13:46:48Z</time></trkpt><trkpt lat="45.11606370587676" lon="7.151976566045933"><ele>825.0</ele><time>2026-04-11T13:46:49Z</time></trkpt><trkpt lat="45.116063575893506" lon="7.151785430354496"><ele>825.0</ele><time>2026-04-11T13:46:50Z</time></trkpt><trkpt lat="45.11606430957113" lon="7.151550992472857"><ele>825.0</ele><time>2026-04-11T13:46:51Z</time></trkpt><trkpt lat="45.116039725435954" lon="7.151376252389773"><ele>828.6</ele><time>2026-04-11T13:46:52Z</time></trkpt><trkpt lat="45.115947973091615" lon="7.151216515146561"><ele>832.2</ele><time>2026-04-11T13:46:53Z</time></trkpt><trkpt lat="45.11588994266289" lon="7.1510632692275795"><ele>835.8</ele><time>2026-04-11T13:46:54Z</time></trkpt><trkpt lat="45.11595519637304" lon="7.151009606695752"><ele>839.4</ele><time>2026-04-11T13:46:55Z</time></trkpt><trkpt lat="45.116046080610296" lon="7.151009655464568"><ele>843.0</ele><time>2026-04-11T13:46:56Z</time></trkpt><trkpt lat="45.11614118421908" lon="7.150908257039137"><ele>843.0</ele><time>2026-04-11T13:46:57Z</time></trkpt><trkpt lat="45.11630507706751" lon="7.150891113333606"><ele>843.0</ele><time>2026-04-11T13:46:58Z</time></trkpt><trkpt lat="45.11640317491034" lon="7.150845256965725"><ele>843.0</ele><time>2026-04-11T13:46:59Z</time></trkpt><trkpt lat="45.1165096621746" lon="7.1508763061810425"><ele>843.0</ele><time>2026-04-11T13:47:00Z</time></trkpt><trkpt lat="45.11658887330591" lon="7.150935844509015"><ele>838.0</ele><time>2026-04-11T13:47:01Z</time></trkpt><trkpt lat="45.116769941882765" lon="7.150989047367539"><ele>833.0</ele><time>2026-04-11T13:47:02Z</time></trkpt><trkpt lat="45.11692753116686" lon="7.151121469359541"><ele>828.0</ele><time>2026-04-11T13:47:03Z</time></trkpt><trkpt lat="45.11709268193755" lon="7.151220912642276"><ele>828.0</ele><time>2026-04-11T13:47:04Z</time></trkpt><trkpt lat="45.117209074013516" lon="7.151282178206206"><ele>828.0</ele><time>2026-04-11T13:47:05Z</time></trkpt><trkpt lat="45.11727771921287" lon="7.151294837306336"><ele>828.0</ele><time>2026-04-11T13:47:06Z</time></trkpt><trkpt lat="45.11733968283763" lon="7.15119956708609"><ele>828.0</ele><time>2026-04-11T13:47:08Z</time></trkpt><trkpt lat="45.11741041002789" lon="7.1509760284420505"><ele>826.0</ele><time>2026-04-11T13:47:09Z</time></trkpt><trkpt lat="45.117428000887195" lon="7.150809302549591"><ele>824.0</ele><time>2026-04-11T13:47:10Z</time></trkpt><trkpt lat="45.117420578119464" lon="7.150637391672698"><ele>822.0</ele><time>2026-04-11T13:47:11Z</time></trkpt><trkpt lat="45.11740157744723" lon="7.150454612194435"><ele>820.0</ele><time>2026-04-11T13:47:12Z</time></trkpt><trkpt lat="45.11735244396461" lon="7.150268676638098"><ele>824.8</ele><time>2026-04-11T13:47:13Z</time></trkpt><trkpt lat="45.117288236333465" lon="7.150096252950516"><ele>829.6</ele><time>2026-04-11T13:47:14Z</time></trkpt><trkpt lat="45.11724773160294" lon="7.1499413727931485"><ele>834.4000000000001</ele><time>2026-04-11T13:47:15Z</time></trkpt><trkpt lat="45.117267825544594" lon="7.149831660132371"><ele>839.2</ele><time>2026-04-11T13:47:16Z</time></trkpt><trkpt lat="45.11731838383753" lon="7.1497404988892805"><ele>844.0</ele><time>2026-04-11T13:47:17Z</time></trkpt><trkpt lat="45.1173143832655" lon="7.149639285881241"><ele>844.0</ele><time>2026-04-11T13:47:18Z</time></trkpt><trkpt lat="45.117207097145894" lon="7.149695644878359"><ele>844.0</ele><time>2026-04-11T13:47:19Z</time></trkpt><trkpt lat="45.11715711388783" lon="7.149771577491156"><ele>844.0</ele><time>2026-04-11T13:47:20Z</time></trkpt><trkpt lat="45.11712078912232" lon="7.149928431969681"><ele>844.0</ele><time>2026-04-11T13:47:21Z</time></trkpt><trkpt lat="45.11710174862399" lon="7.150091045862242"><ele>844.0</ele><time>2026-04-11T13:47:22Z</time></trkpt><trkpt lat="45.117144449883014" lon="7.150261447531854"><ele>844.0</ele><time>2026-04-11T13:47:23Z</time></trkpt><trkpt lat="45.117201612468286" lon="7.15041078153374"><ele>844.0</ele><time>2026-04-11T13:47:24Z</time></trkpt><trkpt lat="45.11718208985652" lon="7.150533227635098"><ele>844.0</ele><time>2026-04-11T13:47:25Z</time></trkpt><trkpt lat="45.117119429327104" lon="7.150583371081983"><ele>844.0</ele><time>2026-04-11T13:47:26Z</time></trkpt><trkpt lat="45.11705193097209" lon="7.150592110177005"><ele>844.0</ele><time>2026-04-11T13:47:27Z</time></trkpt><trkpt lat="45.11692196496872" lon="7.1505081911123085"><ele>844.0</ele><time>2026-04-11T13:47:29Z</time></trkpt><trkpt lat="45.11682683481144" lon="7.150212185351535"><ele>844.0</ele><time>2026-04-11T13:47:30Z</time></trkpt><trkpt lat="45.116768243311945" lon="7.150056348718271"><ele>844.0</ele><time>2026-04-11T13:47:31Z</time></trkpt><trkpt lat="45.116740941407734" lon="7.14987706084741"><ele>848.0</ele><time>2026-04-11T13:47:32Z</time></trkpt><trkpt lat="45.11668521481858" lon="7.1497187191892575"><ele>852.0</ele><time>2026-04-11T13:47:33Z</time></trkpt><trkpt lat="45.11660732161759" lon="7.149580602524414"><ele>856.0</ele><time>2026-04-11T13:47:34Z</time></trkpt><trkpt lat="45.11650348059185" lon="7.149455155337064"><ele>860.0</ele><time>2026-04-11T13:47:35Z</time></trkpt><trkpt lat="45.11636189140945" lon="7.1492928622144625"><ele>864.2</ele><time>2026-04-11T13:47:36Z</time></trkpt><trkpt lat="45.11629080015844" lon="7.149174731898862"><ele>868.4</ele><time>2026-04-11T13:47:37Z</time></trkpt><trkpt lat="45.11625485603633" lon="7.149046419140077"><ele>872.5999999999999</ele><time>2026-04-11T13:47:38Z</time></trkpt><trkpt lat="45.11638750209316" lon="7.148952003304596"><ele>876.8</ele><time>2026-04-11T13:47:40Z</time></trkpt><trkpt lat="45.116450419059404" lon="7.1489106384002445"><ele>881.0</ele><time>2026-04-11T13:47:41Z</time></trkpt><trkpt lat="45.11655909610205" lon="7.148967510360159"><ele>879.0</ele><time>2026-04-11T13:47:42Z</time></trkpt><trkpt lat="45.1166499411239" lon="7.149004733741625"><ele>876.9999999999999</ele><time>2026-04-11T13:47:43Z</time></trkpt><trkpt lat="45.11675171092882" lon="7.149066818367266"><ele>874.9999999999999</ele><time>2026-04-11T13:47:44Z</time></trkpt><trkpt lat="45.116874594908" lon="7.1491238991899975"><ele>873.0</ele><time>2026-04-11T13:47:45Z</time></trkpt><trkpt lat="45.11696944522026" lon="7.149042183685947"><ele>871.0</ele><time>2026-04-11T13:47:46Z</time></trkpt><trkpt lat="45.11699528737821" lon="7.148859963256129"><ele>871.0</ele><time>2026-04-11T13:47:47Z</time></trkpt><trkpt lat="45.117016238914964" lon="7.148660932813086"><ele>871.0</ele><time>2026-04-11T13:47:48Z</time></trkpt><trkpt lat="45.11694444292326" lon="7.1485230328832765"><ele>871.0</ele><time>2026-04-11T13:47:49Z</time></trkpt><trkpt lat="45.11686973610317" lon="7.148338932266561"><ele>871.0</ele><time>2026-04-11T13:47:50Z</time></trkpt><trkpt lat="45.11677787215328" lon="7.148162446692567"><ele>872.6666666666666</ele><time>2026-04-11T13:47:51Z</time></trkpt><trkpt lat="45.11671606608482" lon="7.147898516614121"><ele>874.3333333333333</ele><time>2026-04-11T13:47:52Z</time></trkpt><trkpt lat="45.116628002756855" lon="7.147698945417213"><ele>876.0</ele><time>2026-04-11T13:47:53Z</time></trkpt><trkpt lat="45.1165633447791" lon="7.147528182756051"><ele>884.25</ele><time>2026-04-11T13:47:54Z</time></trkpt><trkpt lat="45.116508469904055" lon="7.1473568167166235"><ele>892.5</ele><time>2026-04-11T13:47:55Z</time></trkpt><trkpt lat="45.11647541498051" lon="7.147186575229419"><ele>900.75</ele><time>2026-04-11T13:47:56Z</time></trkpt><trkpt lat="45.116390658754604" lon="7.146977720611459"><ele>909.0</ele><time>2026-04-11T13:47:57Z</time></trkpt><trkpt lat="45.11633738111571" lon="7.146699705055855"><ele>912.6666666666667</ele><time>2026-04-11T13:47:58Z</time></trkpt><trkpt lat="45.116316464106006" lon="7.146486098902653"><ele>916.3333333333334</ele><time>2026-04-11T13:47:59Z</time></trkpt><trkpt lat="45.11625610923583" lon="7.146286268007675"><ele>920.0</ele><time>2026-04-11T13:48:00Z</time></trkpt><trkpt lat="45.1163000365109" lon="7.146090459187273"><ele>920.0</ele><time>2026-04-11T13:48:01Z</time></trkpt><trkpt lat="45.116333055984754" lon="7.145895459539127"><ele>920.0</ele><time>2026-04-11T13:48:02Z</time></trkpt><trkpt lat="45.11632755473765" lon="7.145683529489719"><ele>920.0</ele><time>2026-04-11T13:48:03Z</time></trkpt><trkpt lat="45.11628944808358" lon="7.145410040247927"><ele>921.0</ele><time>2026-04-11T13:48:04Z</time></trkpt><trkpt lat="45.11624235339105" lon="7.145115880158516"><ele>922.0</ele><time>2026-04-11T13:48:05Z</time></trkpt><trkpt lat="45.116202823975115" lon="7.1448149864893935"><ele>923.0</ele><time>2026-04-11T13:48:06Z</time></trkpt><trkpt lat="45.11618821065695" lon="7.1445301634733"><ele>923.3333333333334</ele><time>2026-04-11T13:48:07Z</time></trkpt><trkpt lat="45.1161522221526" lon="7.144243181318266"><ele>923.6666666666667</ele><time>2026-04-11T13:48:08Z</time></trkpt><trkpt lat="45.11612245590507" lon="7.144003740790421"><ele>924.0</ele><time>2026-04-11T13:48:09Z</time></trkpt><trkpt lat="45.116088084294674" lon="7.14385048428753"><ele>926.25</ele><time>2026-04-11T13:48:10Z</time></trkpt><trkpt lat="45.116026714332584" lon="7.143679022830583"><ele>928.5</ele><time>2026-04-11T13:48:12.001Z</time></trkpt><trkpt lat="45.11607783041079" lon="7.143741163291897"><ele>930.75</ele><time>2026-04-11T13:48:14.001Z</time></trkpt><trkpt lat="45.11623412908903" lon="7.143939312246693"><ele>933.0</ele><time>2026-04-11T13:48:15.001Z</time></trkpt><trkpt lat="45.11631993642946" lon="7.144013633203405"><ele>933.0</ele><time>2026-04-11T13:48:16.001Z</time></trkpt><trkpt lat="45.11639118537193" lon="7.143999167853185"><ele>933.0</ele><time>2026-04-11T13:48:17.001Z</time></trkpt><trkpt lat="45.11639966679304" lon="7.143843539397536"><ele>933.0</ele><time>2026-04-11T13:48:19.001Z</time></trkpt><trkpt lat="45.11636490630795" lon="7.143749570509007"><ele>933.0</ele><time>2026-04-11T13:48:20.001Z</time></trkpt><trkpt lat="45.11633282601939" lon="7.143564497286199"><ele>933.0</ele><time>2026-04-11T13:48:21.001Z</time></trkpt><trkpt lat="45.116267437599646" lon="7.1433712324591765"><ele>933.0</ele><time>2026-04-11T13:48:22.001Z</time></trkpt><trkpt lat="45.11621593498972" lon="7.143221472489639"><ele>933.0</ele><time>2026-04-11T13:48:23.001Z</time></trkpt><trkpt lat="45.11618762870816" lon="7.143046695435348"><ele>933.0</ele><time>2026-04-11T13:48:24.001Z</time></trkpt><trkpt lat="45.11616859234962" lon="7.142756817391379"><ele>935.3333333333333</ele><time>2026-04-11T13:48:25.001Z</time></trkpt><trkpt lat="45.11613839818546" lon="7.1424735591994635"><ele>937.6666666666666</ele><time>2026-04-11T13:48:26.001Z</time></trkpt><trkpt lat="45.116067986647344" lon="7.142245803373406"><ele>940.0</ele><time>2026-04-11T13:48:27.001Z</time></trkpt><trkpt lat="45.115957425384885" lon="7.142068468448951"><ele>940.75</ele><time>2026-04-11T13:48:28.001Z</time></trkpt><trkpt lat="45.11582921563162" lon="7.141891757379958"><ele>941.5</ele><time>2026-04-11T13:48:29.001Z</time></trkpt><trkpt lat="45.11571311380489" lon="7.141745454955548"><ele>942.25</ele><time>2026-04-11T13:48:30.001Z</time></trkpt><trkpt lat="45.11564798440648" lon="7.141662030207365"><ele>943.0</ele><time>2026-04-11T13:48:31.001Z</time></trkpt><trkpt lat="45.11562202008723" lon="7.141415240284664"><ele>946.6666666666666</ele><time>2026-04-11T13:48:32.001Z</time></trkpt><trkpt lat="45.115623609382006" lon="7.141151598772341"><ele>950.3333333333333</ele><time>2026-04-11T13:48:33.001Z</time></trkpt><trkpt lat="45.11571536767781" lon="7.140916924049485"><ele>954.0</ele><time>2026-04-11T13:48:34.001Z</time></trkpt><trkpt lat="45.11561543543411" lon="7.1409079317366215"><ele>954.0</ele><time>2026-04-11T13:48:35.001Z</time></trkpt><trkpt lat="45.11551210715309" lon="7.141022054978669"><ele>954.0000000000001</ele><time>2026-04-11T13:48:37.001Z</time></trkpt><trkpt lat="45.115423870984664" lon="7.141102092581604"><ele>954.0000000000001</ele><time>2026-04-11T13:48:38.001Z</time></trkpt><trkpt lat="45.11533311843564" lon="7.141081509356582"><ele>954.0</ele><time>2026-04-11T13:48:39.001Z</time></trkpt><trkpt lat="45.115311886307666" lon="7.140926931148234"><ele>954.0</ele><time>2026-04-11T13:48:40.001Z</time></trkpt><trkpt lat="45.1151602936875" lon="7.140893082080413"><ele>954.0</ele><time>2026-04-11T13:48:41.001Z</time></trkpt><trkpt lat="45.11510040083417" lon="7.140773882918315"><ele>954.0</ele><time>2026-04-11T13:48:42.001Z</time></trkpt><trkpt lat="45.11502046469113" lon="7.1407812336466705"><ele>954.0</ele><time>2026-04-11T13:48:44.001Z</time></trkpt><trkpt lat="45.11506048779774" lon="7.141031211558826"><ele>954.0</ele><time>2026-04-11T13:48:46.001Z</time></trkpt><trkpt lat="45.11517145594969" lon="7.14124947677987"><ele>954.0</ele><time>2026-04-11T13:48:47.001Z</time></trkpt><trkpt lat="45.11520435916358" lon="7.141389558576536"><ele>954.0000000000001</ele><time>2026-04-11T13:48:48.001Z</time></trkpt><trkpt lat="45.115148238879485" lon="7.141452782542118"><ele>954.0000000000001</ele><time>2026-04-11T13:48:49.001Z</time></trkpt><trkpt lat="45.115035264538854" lon="7.141314763471702"><ele>954.0</ele><time>2026-04-11T13:48:51.001Z</time></trkpt><trkpt lat="45.114974928385976" lon="7.141207704218798"><ele>954.0</ele><time>2026-04-11T13:48:52.001Z</time></trkpt><trkpt lat="45.11492000775406" lon="7.141096792343404"><ele>954.0</ele><time>2026-04-11T13:48:53.001Z</time></trkpt><trkpt lat="45.11486257259438" lon="7.141155787722041"><ele>954.0000000000001</ele><time>2026-04-11T13:48:54.001Z</time></trkpt><trkpt lat="45.11488537327325" lon="7.1412934580564995"><ele>954.0000000000001</ele><time>2026-04-11T13:48:56.001Z</time></trkpt><trkpt lat="45.11495268758343" lon="7.141363971108329"><ele>954.0</ele><time>2026-04-11T13:48:57.001Z</time></trkpt><trkpt lat="45.11502315954814" lon="7.141502866111198"><ele>954.0</ele><time>2026-04-11T13:48:58.001Z</time></trkpt><trkpt lat="45.11505903588298" lon="7.141761486076019"><ele>958.0</ele><time>2026-04-11T13:48:59.001Z</time></trkpt><trkpt lat="45.11509303051094" lon="7.1420379109252945"><ele>962.0</ele><time>2026-04-11T13:49:00.001Z</time></trkpt><trkpt lat="45.11508730945435" lon="7.142268502216091"><ele>966.0</ele><time>2026-04-11T13:49:01.001Z</time></trkpt><trkpt lat="45.11513621748777" lon="7.142446414454217"><ele>968.0</ele><time>2026-04-11T13:49:02.001Z</time></trkpt><trkpt lat="45.11509379123819" lon="7.142584432839879"><ele>970.0</ele><time>2026-04-11T13:49:03.001Z</time></trkpt><trkpt lat="45.115048571295574" lon="7.142777031328358"><ele>972.0</ele><time>2026-04-11T13:49:04.001Z</time></trkpt><trkpt lat="45.115012976215986" lon="7.143040890086732"><ele>974.0</ele><time>2026-04-11T13:49:05.001Z</time></trkpt><trkpt lat="45.1149816879631" lon="7.143280690448779"><ele>975.0</ele><time>2026-04-11T13:49:06.001Z</time></trkpt><trkpt lat="45.11495210550667" lon="7.143484096168768"><ele>976.0000000000001</ele><time>2026-04-11T13:49:07.001Z</time></trkpt><trkpt lat="45.11493252716771" lon="7.143606753119689"><ele>977.0000000000001</ele><time>2026-04-11T13:49:08.001Z</time></trkpt><trkpt lat="45.11486873274572" lon="7.1434564133286065"><ele>978.0</ele><time>2026-04-11T13:49:11.001Z</time></trkpt><trkpt lat="45.11488649275621" lon="7.143367765358406"><ele>979.0</ele><time>2026-04-11T13:49:12.001Z</time></trkpt><trkpt lat="45.11489843983438" lon="7.143257299557196"><ele>982.25</ele><time>2026-04-11T13:49:13.001Z</time></trkpt><trkpt lat="45.11488928394615" lon="7.143046532100926"><ele>985.5</ele><time>2026-04-11T13:49:14.001Z</time></trkpt><trkpt lat="45.11484411781703" lon="7.142895413290718"><ele>988.75</ele><time>2026-04-11T13:49:15.001Z</time></trkpt><trkpt lat="45.1147721979952" lon="7.1427319203784725"><ele>992.0</ele><time>2026-04-11T13:49:16.001Z</time></trkpt><trkpt lat="45.114697556910386" lon="7.1425260114085285"><ele>989.75</ele><time>2026-04-11T13:49:17.001Z</time></trkpt><trkpt lat="45.11464043058797" lon="7.142372140891687"><ele>987.5</ele><time>2026-04-11T13:49:18.001Z</time></trkpt><trkpt lat="45.114571456669886" lon="7.1422532516131465"><ele>985.25</ele><time>2026-04-11T13:49:19.001Z</time></trkpt><trkpt lat="45.11447962686008" lon="7.142155069774212"><ele>983.0</ele><time>2026-04-11T13:49:20.001Z</time></trkpt><trkpt lat="45.1143695857521" lon="7.142099941801674"><ele>983.0</ele><time>2026-04-11T13:49:21.001Z</time></trkpt><trkpt lat="45.11426498650744" lon="7.1421041874452404"><ele>983.0</ele><time>2026-04-11T13:49:22.001Z</time></trkpt><trkpt lat="45.11415122850833" lon="7.142139440003211"><ele>983.0</ele><time>2026-04-11T13:49:23.001Z</time></trkpt><trkpt lat="45.11404652103857" lon="7.142192627290455"><ele>983.0</ele><time>2026-04-11T13:49:24.001Z</time></trkpt><trkpt lat="45.11397676823119" lon="7.142273656577046"><ele>983.0</ele><time>2026-04-11T13:49:25.001Z</time></trkpt><trkpt lat="45.11392023426451" lon="7.142364080748951"><ele>988.75</ele><time>2026-04-11T13:49:26.001Z</time></trkpt><trkpt lat="45.113863617164036" lon="7.142480387149661"><ele>994.5</ele><time>2026-04-11T13:49:27.001Z</time></trkpt><trkpt lat="45.11382570716452" lon="7.142619681657078"><ele>1000.25</ele><time>2026-04-11T13:49:28.001Z</time></trkpt><trkpt lat="45.1138005675677" lon="7.142766215896568"><ele>1006.0</ele><time>2026-04-11T13:49:29.001Z</time></trkpt><trkpt lat="45.11379984858208" lon="7.14296779039676"><ele>1006.0</ele><time>2026-04-11T13:49:30.001Z</time></trkpt><trkpt lat="45.11384071922371" lon="7.143201086865274"><ele>1006.0</ele><time>2026-04-11T13:49:31.001Z</time></trkpt><trkpt lat="45.113848093806254" lon="7.143355656196802"><ele>1006.0</ele><time>2026-04-11T13:49:32.001Z</time></trkpt><trkpt lat="45.11378150312159" lon="7.143422600980083"><ele>1006.0</ele><time>2026-04-11T13:49:34.001Z</time></trkpt><trkpt lat="45.11366847535203" lon="7.1432746958433615"><ele>1006.0</ele><time>2026-04-11T13:49:35.001Z</time></trkpt><trkpt lat="45.1135222669248" lon="7.143227052141353"><ele>1006.0</ele><time>2026-04-11T13:49:36.001Z</time></trkpt><trkpt lat="45.11336962043633" lon="7.143111266481848"><ele>1006.0</ele><time>2026-04-11T13:49:37.001Z</time></trkpt><trkpt lat="45.11321119831815" lon="7.142976569730931"><ele>1015.0</ele><time>2026-04-11T13:49:38.001Z</time></trkpt><trkpt lat="45.11305676921998" lon="7.142785130216696"><ele>1024.0</ele><time>2026-04-11T13:49:39.001Z</time></trkpt><trkpt lat="45.11291410667715" lon="7.142533282027677"><ele>1033.0</ele><time>2026-04-11T13:49:40.001Z</time></trkpt><trkpt lat="45.11276522022232" lon="7.14227488905533"><ele>1033.0</ele><time>2026-04-11T13:49:41.001Z</time></trkpt><trkpt lat="45.11266984463605" lon="7.142047143652681"><ele>1033.0</ele><time>2026-04-11T13:49:42.001Z</time></trkpt><trkpt lat="45.11258444006728" lon="7.141853134853713"><ele>1033.0</ele><time>2026-04-11T13:49:43.001Z</time></trkpt><trkpt lat="45.11252594887425" lon="7.141736340142137"><ele>1033.0</ele><time>2026-04-11T13:49:44.001Z</time></trkpt><trkpt lat="45.112459567519046" lon="7.141669035951335"><ele>1039.6</ele><time>2026-04-11T13:49:45.001Z</time></trkpt><trkpt lat="45.11237312068241" lon="7.141607948295907"><ele>1046.1999999999998</ele><time>2026-04-11T13:49:46.001Z</time></trkpt><trkpt lat="45.112252970202185" lon="7.141528125281558"><ele>1052.8</ele><time>2026-04-11T13:49:47.001Z</time></trkpt><trkpt lat="45.11219109257923" lon="7.141437711196211"><ele>1059.3999999999999</ele><time>2026-04-11T13:49:48.001Z</time></trkpt><trkpt lat="45.11219336997651" lon="7.141329918726111"><ele>1066.0</ele><time>2026-04-11T13:49:49.001Z</time></trkpt><trkpt lat="45.112227751481456" lon="7.141182040864257"><ele>1066.0</ele><time>2026-04-11T13:49:50.001Z</time></trkpt><trkpt lat="45.11223426377611" lon="7.141045399975662"><ele>1066.0</ele><time>2026-04-11T13:49:51.001Z</time></trkpt><trkpt lat="45.11221240259389" lon="7.1408902015037325"><ele>1066.0</ele><time>2026-04-11T13:49:52.001Z</time></trkpt><trkpt lat="45.11216678274736" lon="7.140702333397779"><ele>1066.0</ele><time>2026-04-11T13:49:53.001Z</time></trkpt><trkpt lat="45.112002850148485" lon="7.140442633024347"><ele>1066.0</ele><time>2026-04-11T13:49:55.001Z</time></trkpt><trkpt lat="45.11195163084065" lon="7.140361134896907"><ele>1066.0</ele><time>2026-04-11T13:49:57.001Z</time></trkpt><trkpt lat="45.111870823820595" lon="7.140581294009007"><ele>1066.0</ele><time>2026-04-11T13:50:00.001Z</time></trkpt><trkpt lat="45.11189663301821" lon="7.140747575076387"><ele>1066.0</ele><time>2026-04-11T13:50:01.001Z</time></trkpt><trkpt lat="45.11190885421534" lon="7.140932954117352"><ele>1066.0</ele><time>2026-04-11T13:50:02.001Z</time></trkpt><trkpt lat="45.11187041853065" lon="7.141069052608817"><ele>1066.0</ele><time>2026-04-11T13:50:03.001Z</time></trkpt><trkpt lat="45.1118186469643" lon="7.141221639634885"><ele>1066.0</ele><time>2026-04-11T13:50:04.001Z</time></trkpt><trkpt lat="45.11173937079088" lon="7.141385971659202"><ele>1066.0</ele><time>2026-04-11T13:50:05.001Z</time></trkpt><trkpt lat="45.1116878082822" lon="7.14156268263429"><ele>1068.25</ele><time>2026-04-11T13:50:06.001Z</time></trkpt><trkpt lat="45.11163989260005" lon="7.141713129928454"><ele>1070.5</ele><time>2026-04-11T13:50:07.001Z</time></trkpt><trkpt lat="45.11167476781946" lon="7.141896519234088"><ele>1072.75</ele><time>2026-04-11T13:50:08.001Z</time></trkpt><trkpt lat="45.111686394325645" lon="7.142122154748552"><ele>1075.0</ele><time>2026-04-11T13:50:09.001Z</time></trkpt><trkpt lat="45.11166340682444" lon="7.1423925493575595"><ele>1077.75</ele><time>2026-04-11T13:50:10.001Z</time></trkpt><trkpt lat="45.11164420731489" lon="7.142631917669761"><ele>1080.5</ele><time>2026-04-11T13:50:11.001Z</time></trkpt><trkpt lat="45.1116550028555" lon="7.142858201424014"><ele>1083.25</ele><time>2026-04-11T13:50:12.001Z</time></trkpt><trkpt lat="45.11170142270937" lon="7.142977396982199"><ele>1086.0</ele><time>2026-04-11T13:50:13.001Z</time></trkpt><trkpt lat="45.11174163311987" lon="7.143061339973063"><ele>1086.0</ele><time>2026-04-11T13:50:14.001Z</time></trkpt><trkpt lat="45.11179159109015" lon="7.143150983808948"><ele>1086.0</ele><time>2026-04-11T13:50:15.001Z</time></trkpt><trkpt lat="45.1119197544415" lon="7.143290348115894"><ele>1086.0</ele><time>2026-04-11T13:50:16.001Z</time></trkpt><trkpt lat="45.11197902604457" lon="7.143439768499755"><ele>1086.0</ele><time>2026-04-11T13:50:17.001Z</time></trkpt><trkpt lat="45.112025106081866" lon="7.14360486344169"><ele>1090.0</ele><time>2026-04-11T13:50:18.001Z</time></trkpt><trkpt lat="45.11204639953828" lon="7.14383135143538"><ele>1094.0</ele><time>2026-04-11T13:50:19.001Z</time></trkpt><trkpt lat="45.11203302092533" lon="7.1439925561162205"><ele>1098.0</ele><time>2026-04-11T13:50:20.001Z</time></trkpt><trkpt lat="45.11197510637264" lon="7.1440877789514765"><ele>1102.0</ele><time>2026-04-11T13:50:21.001Z</time></trkpt><trkpt lat="45.11191169655264" lon="7.144182865981749"><ele>1105.25</ele><time>2026-04-11T13:50:22.001Z</time></trkpt><trkpt lat="45.11190270186133" lon="7.144409449343163"><ele>1108.5</ele><time>2026-04-11T13:50:23.001Z</time></trkpt><trkpt lat="45.1118390620268" lon="7.14460130010284"><ele>1111.75</ele><time>2026-04-11T13:50:24.001Z</time></trkpt><trkpt lat="45.111878869055055" lon="7.1447431229126215"><ele>1115.0</ele><time>2026-04-11T13:50:25.001Z</time></trkpt><trkpt lat="45.11189785452278" lon="7.144874726105112"><ele>1115.0</ele><time>2026-04-11T13:50:26.001Z</time></trkpt><trkpt lat="45.111893474347006" lon="7.144979807358331"><ele>1115.0</ele><time>2026-04-11T13:50:27.001Z</time></trkpt><trkpt lat="45.1118513759225" lon="7.145068949237903"><ele>1115.0</ele><time>2026-04-11T13:50:29.001Z</time></trkpt><trkpt lat="45.11177463535844" lon="7.144933139459503"><ele>1115.0</ele><time>2026-04-11T13:50:31.001Z</time></trkpt><trkpt lat="45.11177452359763" lon="7.144827990627744"><ele>1115.0</ele><time>2026-04-11T13:50:32.001Z</time></trkpt><trkpt lat="45.1117704316505" lon="7.1447068069846935"><ele>1115.0</ele><time>2026-04-11T13:50:33.001Z</time></trkpt><trkpt lat="45.11172220579062" lon="7.144649156086252"><ele>1115.0</ele><time>2026-04-11T13:50:34.001Z</time></trkpt><trkpt lat="45.111671188184495" lon="7.1445605527347364"><ele>1115.0</ele><time>2026-04-11T13:50:35.001Z</time></trkpt><trkpt lat="45.111652504760066" lon="7.144457758427696"><ele>1115.0</ele><time>2026-04-11T13:50:36.001Z</time></trkpt><trkpt lat="45.11166660380209" lon="7.144349673419632"><ele>1115.0</ele><time>2026-04-11T13:50:37.001Z</time></trkpt><trkpt lat="45.11167539965796" lon="7.144197169548593"><ele>1115.0</ele><time>2026-04-11T13:50:38.001Z</time></trkpt><trkpt lat="45.11168606821115" lon="7.144084504924719"><ele>1115.0</ele><time>2026-04-11T13:50:39.001Z</time></trkpt><trkpt lat="45.111635520029715" lon="7.143919548875859"><ele>1112.4</ele><time>2026-04-11T13:50:40.001Z</time></trkpt><trkpt lat="45.1115950742428" lon="7.1437895657753785"><ele>1109.8</ele><time>2026-04-11T13:50:41.001Z</time></trkpt><trkpt lat="45.111545376767396" lon="7.143656188843667"><ele>1107.2</ele><time>2026-04-11T13:50:42.001Z</time></trkpt><trkpt lat="45.111504721705366" lon="7.143552955728089"><ele>1104.6</ele><time>2026-04-11T13:50:43.001Z</time></trkpt><trkpt lat="45.11141279647596" lon="7.14348504007953"><ele>1102.0</ele><time>2026-04-11T13:50:44.001Z</time></trkpt><trkpt lat="45.11130485357752" lon="7.143453264396918"><ele>1106.8</ele><time>2026-04-11T13:50:45.001Z</time></trkpt><trkpt lat="45.111240186850544" lon="7.143385304734185"><ele>1111.6</ele><time>2026-04-11T13:50:46.001Z</time></trkpt><trkpt lat="45.111210850740214" lon="7.143258558815217"><ele>1116.3999999999999</ele><time>2026-04-11T13:50:47.001Z</time></trkpt><trkpt lat="45.11120375818385" lon="7.143079445991127"><ele>1121.2</ele><time>2026-04-11T13:50:48.001Z</time></trkpt><trkpt lat="45.111147892585905" lon="7.14291959288968"><ele>1126.0</ele><time>2026-04-11T13:50:49.001Z</time></trkpt><trkpt lat="45.11104935779566" lon="7.142726885061156"><ele>1126.0</ele><time>2026-04-11T13:50:50.001Z</time></trkpt><trkpt lat="45.11094822464462" lon="7.142541978120687"><ele>1126.0</ele><time>2026-04-11T13:50:51.001Z</time></trkpt><trkpt lat="45.110868930200944" lon="7.14240092536753"><ele>1126.0</ele><time>2026-04-11T13:50:52.001Z</time></trkpt><trkpt lat="45.11074253634626" lon="7.142291822988689"><ele>1126.0</ele><time>2026-04-11T13:50:53.001Z</time></trkpt><trkpt lat="45.110657232178845" lon="7.142175369594248"><ele>1130.25</ele><time>2026-04-11T13:50:54.001Z</time></trkpt><trkpt lat="45.11055092779458" lon="7.142011073839545"><ele>1134.5</ele><time>2026-04-11T13:50:55.001Z</time></trkpt><trkpt lat="45.110465165068966" lon="7.141806528060022"><ele>1138.75</ele><time>2026-04-11T13:50:56.001Z</time></trkpt><trkpt lat="45.110416641932474" lon="7.141659369690481"><ele>1143.0</ele><time>2026-04-11T13:50:57.001Z</time></trkpt><trkpt lat="45.11034940321857" lon="7.141561443242302"><ele>1138.0</ele><time>2026-04-11T13:50:58.001Z</time></trkpt><trkpt lat="45.11026864515886" lon="7.141478033386283"><ele>1133.0</ele><time>2026-04-11T13:50:59.001Z</time></trkpt><trkpt lat="45.11013326104331" lon="7.141412267579296"><ele>1128.0</ele><time>2026-04-11T13:51:00.001Z</time></trkpt><trkpt lat="45.11000947782409" lon="7.141316449025502"><ele>1123.0</ele><time>2026-04-11T13:51:01.001Z</time></trkpt><trkpt lat="45.10990938440113" lon="7.141198475650602"><ele>1127.6666666666665</ele><time>2026-04-11T13:51:02.001Z</time></trkpt><trkpt lat="45.10982224518088" lon="7.141106496966571"><ele>1132.3333333333333</ele><time>2026-04-11T13:51:03.001Z</time></trkpt><trkpt lat="45.10974946635169" lon="7.141080345618661"><ele>1137.0</ele><time>2026-04-11T13:51:04.001Z</time></trkpt><trkpt lat="45.10968431755415" lon="7.141091007870357"><ele>1141.6666666666667</ele><time>2026-04-11T13:51:05.001Z</time></trkpt><trkpt lat="45.109595190376886" lon="7.141108671575152"><ele>1146.3333333333335</ele><time>2026-04-11T13:51:06.001Z</time></trkpt><trkpt lat="45.10950383125552" lon="7.141127912928468"><ele>1151.0</ele><time>2026-04-11T13:51:07.001Z</time></trkpt><trkpt lat="45.10935440460431" lon="7.141118817994219"><ele>1151.0</ele><time>2026-04-11T13:51:08.001Z</time></trkpt><trkpt lat="45.10929539728334" lon="7.141082327137486"><ele>1151.0</ele><time>2026-04-11T13:51:09.001Z</time></trkpt><trkpt lat="45.10922211687816" lon="7.141025932574795"><ele>1151.0</ele><time>2026-04-11T13:51:11.001Z</time></trkpt><trkpt lat="45.109300054712875" lon="7.1411835418917144"><ele>1151.0</ele><time>2026-04-11T13:51:13.001Z</time></trkpt><trkpt lat="45.10933939601926" lon="7.1412830499184565"><ele>1151.0</ele><time>2026-04-11T13:51:15.001Z</time></trkpt><trkpt lat="45.10938027609733" lon="7.141436371536004"><ele>1156.25</ele><time>2026-04-11T13:51:17.001Z</time></trkpt><trkpt lat="45.10944079684711" lon="7.141552919405487"><ele>1161.5</ele><time>2026-04-11T13:51:18.001Z</time></trkpt><trkpt lat="45.10953052056623" lon="7.141660810919767"><ele>1166.75</ele><time>2026-04-11T13:51:19.001Z</time></trkpt><trkpt lat="45.10955329021045" lon="7.141838898036747"><ele>1172.0</ele><time>2026-04-11T13:51:20.001Z</time></trkpt><trkpt lat="45.10960297758711" lon="7.142005704373821"><ele>1172.0</ele><time>2026-04-11T13:51:21.001Z</time></trkpt><trkpt lat="45.10966597646507" lon="7.1422586160859725"><ele>1172.0</ele><time>2026-04-11T13:51:22.001Z</time></trkpt><trkpt lat="45.10970996429689" lon="7.142461607360489"><ele>1172.0</ele><time>2026-04-11T13:51:23.001Z</time></trkpt><trkpt lat="45.10979608654837" lon="7.1425921985929275"><ele>1170.25</ele><time>2026-04-11T13:51:24.001Z</time></trkpt><trkpt lat="45.109866958928656" lon="7.142698696585488"><ele>1168.5</ele><time>2026-04-11T13:51:25.001Z</time></trkpt><trkpt lat="45.10996196387398" lon="7.142810777671233"><ele>1166.75</ele><time>2026-04-11T13:51:26.001Z</time></trkpt><trkpt lat="45.11007890832178" lon="7.142907522732633"><ele>1165.0</ele><time>2026-04-11T13:51:27.001Z</time></trkpt><trkpt lat="45.110230068857845" lon="7.143009571273617"><ele>1165.0</ele><time>2026-04-11T13:51:28.001Z</time></trkpt><trkpt lat="45.11033078316008" lon="7.143065299498"><ele>1165.0</ele><time>2026-04-11T13:51:29.001Z</time></trkpt><trkpt lat="45.110415356752455" lon="7.1431296289725"><ele>1165.0</ele><time>2026-04-11T13:51:30.001Z</time></trkpt><trkpt lat="45.110452790705885" lon="7.143306453786241"><ele>1165.0</ele><time>2026-04-11T13:51:32.001Z</time></trkpt><trkpt lat="45.11047363534685" lon="7.1434890593100855"><ele>1172.5</ele><time>2026-04-11T13:51:33.001Z</time></trkpt><trkpt lat="45.110518160151415" lon="7.1436798967802835"><ele>1180.0</ele><time>2026-04-11T13:51:34.001Z</time></trkpt><trkpt lat="45.11053391651237" lon="7.1438544372146255"><ele>1187.5</ele><time>2026-04-11T13:51:35.001Z</time></trkpt><trkpt lat="45.11053821330677" lon="7.1440170736669515"><ele>1195.0</ele><time>2026-04-11T13:51:36.001Z</time></trkpt><trkpt lat="45.1105373021007" lon="7.144178201409286"><ele>1198.6</ele><time>2026-04-11T13:51:37.001Z</time></trkpt><trkpt lat="45.1105361569993" lon="7.144351800170339"><ele>1202.2</ele><time>2026-04-11T13:51:38.001Z</time></trkpt><trkpt lat="45.110546872659384" lon="7.1445142665616395"><ele>1205.8</ele><time>2026-04-11T13:51:39.001Z</time></trkpt><trkpt lat="45.11055619476925" lon="7.144669237244802"><ele>1209.4</ele><time>2026-04-11T13:51:40.001Z</time></trkpt><trkpt lat="45.110550804883594" lon="7.144760691459339"><ele>1213.0</ele><time>2026-04-11T13:51:41.001Z</time></trkpt><trkpt lat="45.11051934048532" lon="7.144841936704096"><ele>1215.0</ele><time>2026-04-11T13:51:42.001Z</time></trkpt><trkpt lat="45.11049607820618" lon="7.144981857200139"><ele>1217.0</ele><time>2026-04-11T13:51:43.001Z</time></trkpt><trkpt lat="45.11049631052096" lon="7.145133331192455"><ele>1219.0</ele><time>2026-04-11T13:51:44.001Z</time></trkpt><trkpt lat="45.11054111970547" lon="7.145258549001022"><ele>1221.0</ele><time>2026-04-11T13:51:45.001Z</time></trkpt><trkpt lat="45.11056508209018" lon="7.145367059580633"><ele>1223.0</ele><time>2026-04-11T13:51:46.001Z</time></trkpt><trkpt lat="45.11054197268875" lon="7.145467267486739"><ele>1223.0</ele><time>2026-04-11T13:51:47.001Z</time></trkpt><trkpt lat="45.110502628308396" lon="7.145640666421193"><ele>1223.0</ele><time>2026-04-11T13:51:48.001Z</time></trkpt><trkpt lat="45.11047771849849" lon="7.145800291685694"><ele>1223.0</ele><time>2026-04-11T13:51:49.001Z</time></trkpt><trkpt lat="45.11048112739972" lon="7.1459005173388785"><ele>1223.0</ele><time>2026-04-11T13:51:50.001Z</time></trkpt><trkpt lat="45.11040276266181" lon="7.145881950147721"><ele>1223.0</ele><time>2026-04-11T13:51:53.001Z</time></trkpt><trkpt lat="45.110372529354" lon="7.145768955302431"><ele>1223.0</ele><time>2026-04-11T13:51:54.001Z</time></trkpt><trkpt lat="45.11035917889005" lon="7.14562812229884"><ele>1223.0</ele><time>2026-04-11T13:51:55.001Z</time></trkpt><trkpt lat="45.110319499337194" lon="7.145473602980171"><ele>1223.0</ele><time>2026-04-11T13:51:56.001Z</time></trkpt><trkpt lat="45.1103242838067" lon="7.145343870271142"><ele>1223.0</ele><time>2026-04-11T13:51:57.001Z</time></trkpt><trkpt lat="45.110304896089836" lon="7.145208910529692"><ele>1223.0</ele><time>2026-04-11T13:51:58.001Z</time></trkpt><trkpt lat="45.110237638148185" lon="7.145055271239744"><ele>1223.0</ele><time>2026-04-11T13:51:59.001Z</time></trkpt><trkpt lat="45.11019472251654" lon="7.1449240510225644"><ele>1223.0</ele><time>2026-04-11T13:52:00.001Z</time></trkpt><trkpt lat="45.11012498501342" lon="7.144802795424938"><ele>1223.0</ele><time>2026-04-11T13:52:01.001Z</time></trkpt><trkpt lat="45.11010083269159" lon="7.144673233549096"><ele>1223.0</ele><time>2026-04-11T13:52:02.001Z</time></trkpt><trkpt lat="45.110032829614504" lon="7.144516544202057"><ele>1223.0</ele><time>2026-04-11T13:52:03.001Z</time></trkpt><trkpt lat="45.10998278388994" lon="7.1443743025689255"><ele>1219.6666666666667</ele><time>2026-04-11T13:52:04.001Z</time></trkpt><trkpt lat="45.109934528833755" lon="7.144175107629599"><ele>1216.3333333333333</ele><time>2026-04-11T13:52:05.001Z</time></trkpt><trkpt lat="45.10986144093595" lon="7.143969639448284"><ele>1213.0</ele><time>2026-04-11T13:52:06.001Z</time></trkpt><trkpt lat="45.109763714658214" lon="7.143778705586708"><ele>1218.25</ele><time>2026-04-11T13:52:07.001Z</time></trkpt><trkpt lat="45.10968341845453" lon="7.143594217641286"><ele>1223.5</ele><time>2026-04-11T13:52:08.001Z</time></trkpt><trkpt lat="45.109609586161284" lon="7.143462829806926"><ele>1228.75</ele><time>2026-04-11T13:52:09.001Z</time></trkpt><trkpt lat="45.1095351496947" lon="7.143364816240557"><ele>1234.0</ele><time>2026-04-11T13:52:10.001Z</time></trkpt><trkpt lat="45.109467540516434" lon="7.1432795866095375"><ele>1235.5</ele><time>2026-04-11T13:52:11.001Z</time></trkpt><trkpt lat="45.10936713814291" lon="7.143191188837834"><ele>1237.0</ele><time>2026-04-11T13:52:12.001Z</time></trkpt><trkpt lat="45.109269229160574" lon="7.143120139447663"><ele>1238.5</ele><time>2026-04-11T13:52:13.001Z</time></trkpt><trkpt lat="45.10914457691669" lon="7.143050313223167"><ele>1240.0</ele><time>2026-04-11T13:52:14.001Z</time></trkpt><trkpt lat="45.10902338010582" lon="7.143013496690959"><ele>1240.0</ele><time>2026-04-11T13:52:15.001Z</time></trkpt><trkpt lat="45.10889255677488" lon="7.142919792081277"><ele>1240.0</ele><time>2026-04-11T13:52:16.001Z</time></trkpt><trkpt lat="45.10876705506046" lon="7.142816413655947"><ele>1240.0</ele><time>2026-04-11T13:52:17.001Z</time></trkpt><trkpt lat="45.10866502470992" lon="7.142720915052259"><ele>1240.0</ele><time>2026-04-11T13:52:18.001Z</time></trkpt><trkpt lat="45.108597405288215" lon="7.142607851584716"><ele>1240.0</ele><time>2026-04-11T13:52:19.001Z</time></trkpt><trkpt lat="45.10855331716158" lon="7.142510034677506"><ele>1240.0</ele><time>2026-04-11T13:52:20.001Z</time></trkpt><trkpt lat="45.108435429518515" lon="7.142474634992113"><ele>1240.0</ele><time>2026-04-11T13:52:22.001Z</time></trkpt><trkpt lat="45.108365202953486" lon="7.14234700421152"><ele>1240.0</ele><time>2026-04-11T13:52:24.001Z</time></trkpt><trkpt lat="45.10833101126101" lon="7.142224432235575"><ele>1240.0</ele><time>2026-04-11T13:52:25.001Z</time></trkpt><trkpt lat="45.10827588306034" lon="7.142147916067127"><ele>1237.5</ele><time>2026-04-11T13:52:26.001Z</time></trkpt><trkpt lat="45.10821861451114" lon="7.142109541375779"><ele>1235.0</ele><time>2026-04-11T13:52:27.001Z</time></trkpt><trkpt lat="45.10814766486194" lon="7.1420680165533375"><ele>1232.5</ele><time>2026-04-11T13:52:28.001Z</time></trkpt><trkpt lat="45.10808996457659" lon="7.141990064994724"><ele>1230.0</ele><time>2026-04-11T13:52:29.001Z</time></trkpt><trkpt lat="45.10802666055512" lon="7.141888644294619"><ele>1227.5</ele><time>2026-04-11T13:52:30.001Z</time></trkpt><trkpt lat="45.107948751153224" lon="7.141843988324614"><ele>1225.0</ele><time>2026-04-11T13:52:31.001Z</time></trkpt><trkpt lat="45.107861252363705" lon="7.141816470349981"><ele>1225.0</ele><time>2026-04-11T13:52:32.001Z</time></trkpt><trkpt lat="45.10772712709656" lon="7.141822543197976"><ele>1225.0</ele><time>2026-04-11T13:52:33.001Z</time></trkpt><trkpt lat="45.10762358546311" lon="7.141936702263927"><ele>1225.0</ele><time>2026-04-11T13:52:35.001Z</time></trkpt><trkpt lat="45.10755534281845" lon="7.1419768169858875"><ele>1225.0</ele><time>2026-04-11T13:52:36.001Z</time></trkpt><trkpt lat="45.10746952297574" lon="7.141954647026593"><ele>1225.0</ele><time>2026-04-11T13:52:37.001Z</time></trkpt><trkpt lat="45.107307526478685" lon="7.141928982539837"><ele>1227.2</ele><time>2026-04-11T13:52:41.001Z</time></trkpt><trkpt lat="45.10721048502481" lon="7.141909042967621"><ele>1229.4</ele><time>2026-04-11T13:52:42.001Z</time></trkpt><trkpt lat="45.10713235614013" lon="7.141911564108527"><ele>1231.6</ele><time>2026-04-11T13:52:43.001Z</time></trkpt><trkpt lat="45.10706540389885" lon="7.141897291115168"><ele>1233.8</ele><time>2026-04-11T13:52:44.001Z</time></trkpt><trkpt lat="45.106978990535204" lon="7.141923698686268"><ele>1236.0</ele><time>2026-04-11T13:52:45.001Z</time></trkpt><trkpt lat="45.10683604608284" lon="7.141915931627069"><ele>1236.0</ele><time>2026-04-11T13:52:47.001Z</time></trkpt><trkpt lat="45.106772087744595" lon="7.141924177447656"><ele>1236.0</ele><time>2026-04-11T13:52:48.001Z</time></trkpt><trkpt lat="45.10670689741663" lon="7.141960830378917"><ele>1236.0</ele><time>2026-04-11T13:52:51.001Z</time></trkpt><trkpt lat="45.10663360027249" lon="7.141919088899652"><ele>1236.0</ele><time>2026-04-11T13:52:53.001Z</time></trkpt><trkpt lat="45.106555326481605" lon="7.141858742207602"><ele>1236.0</ele><time>2026-04-11T13:52:55.001Z</time></trkpt><trkpt lat="45.10647993479422" lon="7.1417801414607345"><ele>1236.0</ele><time>2026-04-11T13:52:58.001Z</time></trkpt><trkpt lat="45.106405064903726" lon="7.141770974468865"><ele>1236.0</ele><time>2026-04-11T13:53:01.001Z</time></trkpt><trkpt lat="45.106465034131055" lon="7.141740694583652"><ele>1236.0</ele><time>2026-04-11T13:53:46.001Z</time></trkpt><trkpt lat="45.106548504642504" lon="7.141795917699673"><ele>1236.0</ele><time>2026-04-11T13:53:52.001Z</time></trkpt><trkpt lat="45.10661643365138" lon="7.141890467968064"><ele>1236.0</ele><time>2026-04-11T13:53:55.001Z</time></trkpt><trkpt lat="45.10667644962754" lon="7.141924302491273"><ele>1236.0</ele><time>2026-04-11T13:53:58.001Z</time></trkpt><trkpt lat="45.10674810516123" lon="7.141932781231865"><ele>1236.0</ele><time>2026-04-11T13:54:01.001Z</time></trkpt><trkpt lat="45.10682552487424" lon="7.141903573587182"><ele>1236.0000000000002</ele><time>2026-04-11T13:54:03.001Z</time></trkpt><trkpt lat="45.106903128641044" lon="7.1418908273539135"><ele>1236.0</ele><time>2026-04-11T13:54:05.001Z</time></trkpt><trkpt lat="45.10697214532249" lon="7.141901329597677"><ele>1236.0</ele><time>2026-04-11T13:54:08.001Z</time></trkpt><trkpt lat="45.10704550471223" lon="7.141906572963557"><ele>1236.0</ele><time>2026-04-11T13:54:12.001Z</time></trkpt><trkpt lat="45.10711928886185" lon="7.141896780516578"><ele>1236.0</ele><time>2026-04-11T13:54:50.001Z</time></trkpt><trkpt lat="45.10719019943105" lon="7.141920406384026"><ele>1236.0000000000002</ele><time>2026-04-11T13:54:53.001Z</time></trkpt><trkpt lat="45.10725404144131" lon="7.141894974557559"><ele>1236.0</ele><time>2026-04-11T13:54:56.001Z</time></trkpt><trkpt lat="45.107323842685936" lon="7.141932338165616"><ele>1236.0</ele><time>2026-04-11T13:54:58.001Z</time></trkpt><trkpt lat="45.10738686038927" lon="7.141951668444174"><ele>1236.0</ele><time>2026-04-11T13:55:00.001Z</time></trkpt><trkpt lat="45.107450049465164" lon="7.14197169224484"><ele>1236.0</ele><time>2026-04-11T13:55:04.001Z</time></trkpt><trkpt lat="45.107550497847264" lon="7.141999966886196"><ele>1236.0</ele><time>2026-04-11T13:56:01.001Z</time></trkpt><trkpt lat="45.107664321864156" lon="7.141998682399024"><ele>1236.0</ele><time>2026-04-11T13:56:03.001Z</time></trkpt><trkpt lat="45.10777951856093" lon="7.141915256910674"><ele>1234.1666666666667</ele><time>2026-04-11T13:56:05.001Z</time></trkpt><trkpt lat="45.10784412438966" lon="7.141842408738838"><ele>1232.3333333333333</ele><time>2026-04-11T13:56:07.001Z</time></trkpt><trkpt lat="45.10791151162115" lon="7.141817637833544"><ele>1230.5</ele><time>2026-04-11T13:56:09.001Z</time></trkpt><trkpt lat="45.10799176922829" lon="7.141839996950977"><ele>1228.6666666666665</ele><time>2026-04-11T13:56:14.001Z</time></trkpt><trkpt lat="45.10805463092194" lon="7.141896013763109"><ele>1226.8333333333333</ele><time>2026-04-11T13:56:16.001Z</time></trkpt><trkpt lat="45.10809888583796" lon="7.1419834333433885"><ele>1225.0</ele><time>2026-04-11T13:56:18.001Z</time></trkpt><trkpt lat="45.10816995589928" lon="7.142044131066626"><ele>1225.0</ele><time>2026-04-11T13:56:20.001Z</time></trkpt><trkpt lat="45.108219517510456" lon="7.142116270000083"><ele>1225.0</ele><time>2026-04-11T13:56:22.001Z</time></trkpt><trkpt lat="45.10828827706643" lon="7.1421567466270055"><ele>1225.0</ele><time>2026-04-11T13:56:25.001Z</time></trkpt><trkpt lat="45.108334528331916" lon="7.142228826347881"><ele>1225.0</ele><time>2026-04-11T13:56:27.001Z</time></trkpt><trkpt lat="45.10836845004903" lon="7.142324327827769"><ele>1225.0</ele><time>2026-04-11T13:56:29.001Z</time></trkpt><trkpt lat="45.10838890286682" lon="7.142434109255671"><ele>1225.0</ele><time>2026-04-11T13:56:31.001Z</time></trkpt><trkpt lat="45.1084648303443" lon="7.142516155451975"><ele>1228.0</ele><time>2026-04-11T13:56:33.001Z</time></trkpt><trkpt lat="45.10854291258725" lon="7.142565875653226"><ele>1231.0</ele><time>2026-04-11T13:56:35.001Z</time></trkpt><trkpt lat="45.10860750126932" lon="7.142605791021874"><ele>1234.0</ele><time>2026-04-11T13:56:37.001Z</time></trkpt><trkpt lat="45.10867703018692" lon="7.142672265643237"><ele>1237.0</ele><time>2026-04-11T13:56:39.001Z</time></trkpt><trkpt lat="45.10874982375511" lon="7.142786211088285"><ele>1240.0</ele><time>2026-04-11T13:56:41.001Z</time></trkpt><trkpt lat="45.10881504621941" lon="7.142919134265876"><ele>1240.0</ele><time>2026-04-11T13:56:43.001Z</time></trkpt><trkpt lat="45.1088734644721" lon="7.142976935355551"><ele>1240.0</ele><time>2026-04-11T13:56:44.001Z</time></trkpt><trkpt lat="45.10893309384176" lon="7.143031571508481"><ele>1240.0</ele><time>2026-04-11T13:56:45.001Z</time></trkpt><trkpt lat="45.10900380413799" lon="7.143089977385273"><ele>1240.0</ele><time>2026-04-11T13:56:46.001Z</time></trkpt><trkpt lat="45.10907902168194" lon="7.14315164727057"><ele>1240.0</ele><time>2026-04-11T13:56:47.001Z</time></trkpt><trkpt lat="45.10914785542916" lon="7.143206531189887"><ele>1240.0</ele><time>2026-04-11T13:56:48.001Z</time></trkpt><trkpt lat="45.10923111804513" lon="7.143271968856218"><ele>1239.0</ele><time>2026-04-11T13:56:49.001Z</time></trkpt><trkpt lat="45.10930260927226" lon="7.1433202786908465"><ele>1238.0</ele><time>2026-04-11T13:56:50.001Z</time></trkpt><trkpt lat="45.10937509602246" lon="7.143369261550946"><ele>1237.0</ele><time>2026-04-11T13:56:51.001Z</time></trkpt><trkpt lat="45.10943285613019" lon="7.14341170992011"><ele>1236.0</ele><time>2026-04-11T13:56:52.001Z</time></trkpt><trkpt lat="45.10949279955257" lon="7.143464359517637"><ele>1235.0</ele><time>2026-04-11T13:56:53.001Z</time></trkpt><trkpt lat="45.109546809755976" lon="7.143528547230174"><ele>1234.0</ele><time>2026-04-11T13:56:54.001Z</time></trkpt><trkpt lat="45.10961840672595" lon="7.143672533281947"><ele>1234.0</ele><time>2026-04-11T13:56:56.001Z</time></trkpt><trkpt lat="45.10965236693206" lon="7.143754823749504"><ele>1234.0</ele><time>2026-04-11T13:56:57.001Z</time></trkpt><trkpt lat="45.10969067949693" lon="7.143839272875708"><ele>1234.0</ele><time>2026-04-11T13:56:58.001Z</time></trkpt><trkpt lat="45.10972710645204" lon="7.14391827154805"><ele>1234.0</ele><time>2026-04-11T13:56:59.001Z</time></trkpt><trkpt lat="45.109764622198966" lon="7.143998955501712"><ele>1234.0</ele><time>2026-04-11T13:57:00.001Z</time></trkpt><trkpt lat="45.109835139698966" lon="7.144148981305425"><ele>1234.0</ele><time>2026-04-11T13:57:02.001Z</time></trkpt><trkpt lat="45.10989529946082" lon="7.144298632600921"><ele>1229.8</ele><time>2026-04-11T13:57:04.001Z</time></trkpt><trkpt lat="45.109931232116075" lon="7.144437273958393"><ele>1225.6000000000001</ele><time>2026-04-11T13:57:06.001Z</time></trkpt><trkpt lat="45.109978617701216" lon="7.144558797702599"><ele>1221.4</ele><time>2026-04-11T13:57:08.001Z</time></trkpt><trkpt lat="45.11003860646403" lon="7.144663179875069"><ele>1217.2</ele><time>2026-04-11T13:57:10.001Z</time></trkpt><trkpt lat="45.11010341809972" lon="7.14476310185179"><ele>1213.0</ele><time>2026-04-11T13:57:13.001Z</time></trkpt><trkpt lat="45.11012573201868" lon="7.144849237175369"><ele>1214.6666666666665</ele><time>2026-04-11T13:57:17.001Z</time></trkpt><trkpt lat="45.11016899606037" lon="7.144930679310066"><ele>1216.3333333333333</ele><time>2026-04-11T13:57:25.001Z</time></trkpt><trkpt lat="45.11018566666687" lon="7.145029861406178"><ele>1218.0</ele><time>2026-04-11T13:57:27.001Z</time></trkpt><trkpt lat="45.11021830465864" lon="7.145153179104823"><ele>1219.6666666666667</ele><time>2026-04-11T13:57:29.001Z</time></trkpt><trkpt lat="45.11024467758921" lon="7.1452948645906655"><ele>1221.3333333333335</ele><time>2026-04-11T13:57:31.001Z</time></trkpt><trkpt lat="45.110278315865365" lon="7.145432422032443"><ele>1223.0</ele><time>2026-04-11T13:57:33Z</time></trkpt><trkpt lat="45.11030177441418" lon="7.145525997768228"><ele>1223.0</ele><time>2026-04-11T13:57:35Z</time></trkpt><trkpt lat="45.1103350480215" lon="7.14562737654759"><ele>1223.0</ele><time>2026-04-11T13:57:37Z</time></trkpt><trkpt lat="45.11035764905134" lon="7.14573962395994"><ele>1223.0</ele><time>2026-04-11T13:57:39Z</time></trkpt><trkpt lat="45.110376318265075" lon="7.145828584770689"><ele>1223.0</ele><time>2026-04-11T13:57:41Z</time></trkpt><trkpt lat="45.110448897637866" lon="7.145815793672987"><ele>1223.0</ele><time>2026-04-11T13:57:43Z</time></trkpt><trkpt lat="45.11041664245383" lon="7.145731022526043"><ele>1223.0</ele><time>2026-04-11T13:57:45Z</time></trkpt><trkpt lat="45.11045095623748" lon="7.145649719081161"><ele>1223.0</ele><time>2026-04-11T13:57:50Z</time></trkpt><trkpt lat="45.11047828782782" lon="7.145527605920948"><ele>1223.0</ele><time>2026-04-11T13:57:52Z</time></trkpt><trkpt lat="45.110492455938704" lon="7.1454292409910884"><ele>1223.0</ele><time>2026-04-11T13:57:54Z</time></trkpt><trkpt lat="45.110489199623075" lon="7.145338516023128"><ele>1223.0</ele><time>2026-04-11T13:57:56Z</time></trkpt><trkpt lat="45.11049180698879" lon="7.145242842874206"><ele>1223.0</ele><time>2026-04-11T13:57:58Z</time></trkpt><trkpt lat="45.11049264851872" lon="7.14514439222712"><ele>1223.0</ele><time>2026-04-11T13:58:00Z</time></trkpt><trkpt lat="45.110486043469415" lon="7.145051473128107"><ele>1223.0</ele><time>2026-04-11T13:58:03Z</time></trkpt><trkpt lat="45.11048867016599" lon="7.144946499014555"><ele>1223.0</ele><time>2026-04-11T13:58:06Z</time></trkpt><trkpt lat="45.11048060689914" lon="7.144835188608572"><ele>1221.5714285714284</ele><time>2026-04-11T13:58:09Z</time></trkpt><trkpt lat="45.110513884343206" lon="7.14475111943151"><ele>1220.1428571428573</ele><time>2026-04-11T13:58:12Z</time></trkpt><trkpt lat="45.11053581230093" lon="7.14465764846751"><ele>1218.7142857142858</ele><time>2026-04-11T13:58:24Z</time></trkpt><trkpt lat="45.11050297306647" lon="7.144564178668824"><ele>1217.2857142857142</ele><time>2026-04-11T14:06:58Z</time></trkpt><trkpt lat="45.11049351195816" lon="7.144466133467523"><ele>1215.8571428571427</ele><time>2026-04-11T14:07:02Z</time></trkpt><trkpt lat="45.11046630867045" lon="7.144369197562619"><ele>1214.4285714285716</ele><time>2026-04-11T14:07:04Z</time></trkpt><trkpt lat="45.11043867694961" lon="7.1442497101944165"><ele>1213.0</ele><time>2026-04-11T14:07:06Z</time></trkpt><trkpt lat="45.110442715796076" lon="7.144141355961589"><ele>1209.4</ele><time>2026-04-11T14:07:09Z</time></trkpt><trkpt lat="45.11042604755035" lon="7.14401424259649"><ele>1205.8</ele><time>2026-04-11T14:07:11Z</time></trkpt><trkpt lat="45.110437333633" lon="7.143880397194089"><ele>1202.2</ele><time>2026-04-11T14:07:13Z</time></trkpt><trkpt lat="45.110436772475225" lon="7.143753816600714"><ele>1198.6</ele><time>2026-04-11T14:07:15Z</time></trkpt><trkpt lat="45.110411159204084" lon="7.143611788195723"><ele>1195.0</ele><time>2026-04-11T14:07:17Z</time></trkpt><trkpt lat="45.11037886481491" lon="7.143470237104089"><ele>1195.0</ele><time>2026-04-11T14:07:19Z</time></trkpt><trkpt lat="45.11034552482436" lon="7.1433150828656755"><ele>1195.0</ele><time>2026-04-11T14:07:21Z</time></trkpt><trkpt lat="45.11033090267854" lon="7.143160587633359"><ele>1195.0</ele><time>2026-04-11T14:07:23Z</time></trkpt><trkpt lat="45.110299007157884" lon="7.143027204029434"><ele>1195.0</ele><time>2026-04-11T14:07:25Z</time></trkpt><trkpt lat="45.11021750675716" lon="7.142950063483455"><ele>1195.0</ele><time>2026-04-11T14:07:27Z</time></trkpt><trkpt lat="45.11012302950178" lon="7.142892229129699"><ele>1195.5</ele><time>2026-04-11T14:07:29Z</time></trkpt><trkpt lat="45.11003682177478" lon="7.142823580563586"><ele>1196.0</ele><time>2026-04-11T14:07:31Z</time></trkpt><trkpt lat="45.10994449538208" lon="7.142751508267485"><ele>1196.5</ele><time>2026-04-11T14:07:33Z</time></trkpt><trkpt lat="45.10992192117529" lon="7.1426322739727235"><ele>1197.0</ele><time>2026-04-11T14:07:34Z</time></trkpt><trkpt lat="45.109841452684314" lon="7.142611061762259"><ele>1197.5</ele><time>2026-04-11T14:07:35Z</time></trkpt><trkpt lat="45.10978762065678" lon="7.142552766559176"><ele>1198.0</ele><time>2026-04-11T14:07:36Z</time></trkpt><trkpt lat="45.10972521370026" lon="7.1424469328816125"><ele>1193.6666666666665</ele><time>2026-04-11T14:07:38Z</time></trkpt><trkpt lat="45.109688411312646" lon="7.142354255164549"><ele>1189.3333333333333</ele><time>2026-04-11T14:07:39Z</time></trkpt><trkpt lat="45.10966247535557" lon="7.142268110087431"><ele>1185.0</ele><time>2026-04-11T14:07:40Z</time></trkpt><trkpt lat="45.1096174868233" lon="7.142119533712929"><ele>1180.6666666666667</ele><time>2026-04-11T14:07:42Z</time></trkpt><trkpt lat="45.10961211873602" lon="7.1420199973023735"><ele>1176.3333333333335</ele><time>2026-04-11T14:07:44Z</time></trkpt><trkpt lat="45.10957163026857" lon="7.141920883378408"><ele>1172.0</ele><time>2026-04-11T14:08:00Z</time></trkpt><trkpt lat="45.109544350201894" lon="7.141807707189292"><ele>1172.0</ele><time>2026-04-11T14:08:03Z</time></trkpt><trkpt lat="45.10950575560313" lon="7.141663730429998"><ele>1172.0</ele><time>2026-04-11T14:08:05Z</time></trkpt><trkpt lat="45.109456600732216" lon="7.141521049857142"><ele>1172.0</ele><time>2026-04-11T14:08:07Z</time></trkpt><trkpt lat="45.109385455961366" lon="7.14141551775242"><ele>1172.0</ele><time>2026-04-11T14:08:09Z</time></trkpt><trkpt lat="45.109343561308826" lon="7.1412737574776015"><ele>1172.0</ele><time>2026-04-11T14:08:11Z</time></trkpt><trkpt lat="45.10933640640868" lon="7.141148418226224"><ele>1167.8</ele><time>2026-04-11T14:08:13Z</time></trkpt><trkpt lat="45.10937438878889" lon="7.141067943360419"><ele>1163.6</ele><time>2026-04-11T14:08:17Z</time></trkpt><trkpt lat="45.10951286591672" lon="7.141147513128299"><ele>1159.3999999999999</ele><time>2026-04-11T14:08:21Z</time></trkpt><trkpt lat="45.1096093326039" lon="7.141134259590376"><ele>1155.2</ele><time>2026-04-11T14:08:23Z</time></trkpt><trkpt lat="45.109725088830686" lon="7.141120012700588"><ele>1151.0</ele><time>2026-04-11T14:08:25Z</time></trkpt><trkpt lat="45.10983335004784" lon="7.14114597094787"><ele>1151.0</ele><time>2026-04-11T14:08:27Z</time></trkpt><trkpt lat="45.10990886418535" lon="7.1412256234672356"><ele>1123.0</ele><time>2026-04-11T14:08:29Z</time></trkpt><trkpt lat="45.10998225863549" lon="7.1412894470248"><ele>1123.0</ele><time>2026-04-11T14:08:31Z</time></trkpt><trkpt lat="45.1100484241648" lon="7.141364981281198"><ele>1123.0</ele><time>2026-04-11T14:08:33Z</time></trkpt><trkpt lat="45.11011582545041" lon="7.1414088102370314"><ele>1123.0</ele><time>2026-04-11T14:08:35Z</time></trkpt><trkpt lat="45.11018571628697" lon="7.141448686936369"><ele>1123.0</ele><time>2026-04-11T14:08:37Z</time></trkpt></trkseg></trk></gpx>